Observation data for Weinert on 01/19/2019      Previous  Date  Next       Current Mesonet Observations  Soil Data  Daily Summary Page  Observations in Plain Language
KWE1 190600Z 34026G34KT 06/00 A2994 RMK A01 T00580002  RH  067%=      5-min Rain = 0
KWE1 190601Z 34025G31KT 06/00 A2994 RMK A01 T00580001  RH  067%=      5-min Rain = 0
KWE1 190602Z 33023KT 06/00 A2994 RMK A01 T00580001  RH  067%=      5-min Rain = 0
KWE1 190603Z 33025G36KT 06/00 A2994 RMK A01 T00580002  RH  067%=      5-min Rain = 0
KWE1 190604Z 34026KT 06/00 A2995 RMK A01 T00580001  RH  067%=      5-min Rain = 0
KWE1 190605Z 34021G26KT 06/00 A2995 RMK A01 T00570001  RH  067%=      5-min Rain = 0
KWE1 190606Z 35028G35KT 06/00 A2995 RMK A01 T00570002  RH  068%=      5-min Rain = 0
KWE1 190607Z 35025G31KT 06/00 A2995 RMK A01 T00570000  RH  067%=      5-min Rain = 0
KWE1 190608Z 34022G27KT 06/00 A2995 RMK A01 T00570001  RH  067%=      5-min Rain = 0
KWE1 190609Z 35026G31KT 06/00 A2995 RMK A01 T00570000  RH  067%=      5-min Rain = 0
KWE1 190610Z 34024G30KT 06/00 A2995 RMK A01 T005600-0  RH  067%=      5-min Rain = 0
KWE1 190611Z 34025G31KT 06/00 A2995 RMK A01 T005600-0  RH  067%=      5-min Rain = 0
KWE1 190612Z 34024G30KT 06/M00 A2995 RMK A01 T00561001  RH  067%=      5-min Rain = 0
KWE1 190613Z 35025G31KT 06/M00 A2995 RMK A01 T00561001  RH  066%=      5-min Rain = 0
KWE1 190614Z 35024KT 06/M00 A2995 RMK A01 T00561002  RH  066%=      5-min Rain = 0
KWE1 190615Z 34021KT 06/M00 A2995 RMK A01 T00561001  RH  067%=      5-min Rain = 0
KWE1 190616Z 34025G31KT 06/M00 A2995 RMK A01 T00561001  RH  067%=      5-min Rain = 0
KWE1 190617Z 34025KT 06/M00 A2995 RMK A01 T00561002  RH  066%=      5-min Rain = 0
KWE1 190618Z 35025KT 06/M00 A2996 RMK A01 T00561002  RH  066%=      5-min Rain = 0
KWE1 190619Z 34024KT 06/M00 A2995 RMK A01 T00561002  RH  066%=      5-min Rain = 0
KWE1 190620Z 34026G31KT 06/M00 A2995 RMK A01 T00551003  RH  066%=      5-min Rain = 0
KWE1 190621Z 34028KT 06/M00 A2996 RMK A01 T00551004  RH  066%=      5-min Rain = 0
KWE1 190622Z 34028KT 06/M01 A2996 RMK A01 T00551005  RH  065%=      5-min Rain = 0
KWE1 190623Z 34024KT 05/M01 A2996 RMK A01 T00541005  RH  065%=      5-min Rain = 0
KWE1 190624Z 34023G30KT 05/M01 A2996 RMK A01 T00541005  RH  066%=      5-min Rain = 0
KWE1 190625Z 34021KT 05/M01 A2996 RMK A01 T00541005  RH  066%=      5-min Rain = 0
KWE1 190626Z 34024G29KT 05/M01 A2996 RMK A01 T00531005  RH  066%=      5-min Rain = 0
KWE1 190627Z 34028G33KT 05/M01 A2996 RMK A01 T00531006  RH  066%=      5-min Rain = 0
KWE1 190628Z 34025G31KT 05/M01 A2996 RMK A01 T00521007  RH  066%=      5-min Rain = 0
KWE1 190629Z 34025KT 05/M01 A2996 RMK A01 T00531006  RH  066%=      5-min Rain = 0
KWE1 190630Z 34022G28KT 05/M01 A2996 RMK A01 T00521006  RH  066%=      5-min Rain = 0
KWE1 190631Z 34024G32KT 05/M01 A2996 RMK A01 T00521006  RH  066%=      5-min Rain = 0
KWE1 190632Z 34023KT 05/M01 A2996 RMK A01 T00521006  RH  066%=      5-min Rain = 0
KWE1 190633Z 34018KT 05/M01 A2996 RMK A01 T00521005  RH  066%=      5-min Rain = 0
KWE1 190634Z 34026G32KT 05/M01 A2996 RMK A01 T00521005  RH  067%=      5-min Rain = 0
KWE1 190635Z 34025G31KT 05/M01 A2996 RMK A01 T00521007  RH  066%=      5-min Rain = 0
KWE1 190636Z 34026KT 05/M01 A2996 RMK A01 T00511008  RH  066%=      5-min Rain = 0
KWE1 190637Z 34025G32KT 05/M01 A2997 RMK A01 T00511008  RH  066%=      5-min Rain = 0
KWE1 190638Z 34026KT 05/M01 A2997 RMK A01 T00511007  RH  066%=      5-min Rain = 0
KWE1 190639Z 34026KT 05/M01 A2997 RMK A01 T00511007  RH  066%=      5-min Rain = 0
KWE1 190640Z 35024G30KT 05/M01 A2997 RMK A01 T00511008  RH  066%=      5-min Rain = 0
KWE1 190641Z 35024G31KT 05/M01 A2997 RMK A01 T00511008  RH  066%=      5-min Rain = 0
KWE1 190642Z 35024G29KT 05/M01 A2997 RMK A01 T00511008  RH  066%=      5-min Rain = 0
KWE1 190643Z 34022KT 05/M01 A2997 RMK A01 T00511007  RH  066%=      5-min Rain = 0
KWE1 190644Z 35024KT 05/M01 A2997 RMK A01 T00511008  RH  066%=      5-min Rain = 0
KWE1 190645Z 35027KT 05/M01 A2997 RMK A01 T00511008  RH  066%=      5-min Rain = 0
KWE1 190646Z 34027KT 05/M01 A2997 RMK A01 T00501010  RH  065%=      5-min Rain = 0
KWE1 190647Z 35024KT 05/M01 A2997 RMK A01 T00501010  RH  065%=      5-min Rain = 0
KWE1 190648Z 34027KT 05/M01 A2997 RMK A01 T00501009  RH  065%=      5-min Rain = 0
KWE1 190649Z 34022KT 05/M01 A2997 RMK A01 T00501010  RH  065%=      5-min Rain = 0
KWE1 190650Z 34025KT 05/M01 A2997 RMK A01 T00501009  RH  066%=      5-min Rain = 0
KWE1 190651Z 34023KT 05/M01 A2997 RMK A01 T00501009  RH  066%=      5-min Rain = 0
KWE1 190652Z 34023G28KT 05/M01 A2998 RMK A01 T00501009  RH  066%=      5-min Rain = 0
KWE1 190653Z 34022G27KT 05/M01 A2997 RMK A01 T00491009  RH  066%=      5-min Rain = 0
KWE1 190654Z 34023G29KT 05/M01 A2998 RMK A01 T00491008  RH  066%=      5-min Rain = 0
KWE1 190655Z 34024KT 05/M01 A2998 RMK A01 T00491009  RH  066%=      5-min Rain = 0
KWE1 190656Z 35023KT 05/M01 A2998 RMK A01 T00491009  RH  066%=      5-min Rain = 0
KWE1 190657Z 35024KT 05/M01 A2998 RMK A01 T00491010  RH  066%=      5-min Rain = 0
KWE1 190658Z 35022KT 05/M01 A2998 RMK A01 T00491010  RH  066%=      5-min Rain = 0
KWE1 190659Z 35021KT 05/M01 A2998 RMK A01 T00491010  RH  066%=      5-min Rain = 0
KWE1 190700Z 34024G32KT 05/M01 A2998 RMK A01 T00481010  RH  066%=      5-min Rain = 0
KWE1 190701Z 34022G27KT 05/M01 A2998 RMK A01 T00481011  RH  066%=      5-min Rain = 0
KWE1 190702Z 34024KT 05/M01 A2998 RMK A01 T00471011  RH  066%=      5-min Rain = 0
KWE1 190703Z 34020G25KT 05/M01 A2998 RMK A01 T00471011  RH  066%=      5-min Rain = 0
KWE1 190704Z 34021G27KT 05/M01 A2998 RMK A01 T00471010  RH  067%=      5-min Rain = 0
KWE1 190705Z 34025G30KT 05/M01 A2998 RMK A01 T00461010  RH  067%=      5-min Rain = 0
KWE1 190706Z 34028KT 05/M01 A2998 RMK A01 T00461012  RH  066%=      5-min Rain = 0
KWE1 190707Z 34022G30KT 05/M01 A2999 RMK A01 T00461012  RH  066%=      5-min Rain = 0
KWE1 190708Z 34026KT 05/M01 A2998 RMK A01 T00451012  RH  066%=      5-min Rain = 0
KWE1 190709Z 34023G29KT 05/M01 A2999 RMK A01 T00451013  RH  066%=      5-min Rain = 0
KWE1 190710Z 34021G26KT 05/M01 A2999 RMK A01 T00451011  RH  067%=      5-min Rain = 0
KWE1 190711Z 34028KT 04/M01 A2999 RMK A01 T00441011  RH  067%=      5-min Rain = 0
KWE1 190712Z 34027KT 04/M01 A2999 RMK A01 T00441013  RH  067%=      5-min Rain = 0
KWE1 190713Z 35029G34KT 04/M01 A2999 RMK A01 T00431012  RH  067%=      5-min Rain = 0
KWE1 190714Z 34025G30KT 04/M01 A2999 RMK A01 T00431012  RH  067%=      5-min Rain = 0
KWE1 190715Z 35024KT 04/M01 A2999 RMK A01 T00431011  RH  068%=      5-min Rain = 0
KWE1 190716Z 35025KT 04/M01 A2999 RMK A01 T00431010  RH  068%=      5-min Rain = 0
KWE1 190717Z 35026G31KT 04/M01 A2999 RMK A01 T00431011  RH  068%=      5-min Rain = 0
KWE1 190718Z 35022KT 04/M01 A2999 RMK A01 T00421012  RH  068%=      5-min Rain = 0
KWE1 190719Z 34022KT 04/M01 A2999 RMK A01 T00431011  RH  068%=      5-min Rain = 0
KWE1 190720Z 35024KT 04/M01 A2999 RMK A01 T00431011  RH  068%=      5-min Rain = 0
KWE1 190721Z 35023KT 04/M01 A2999 RMK A01 T00431012  RH  068%=      5-min Rain = 0
KWE1 190722Z 34023G28KT 04/M01 A30 RMK A01 T00431012  RH  068%=      5-min Rain = 0
KWE1 190723Z 34023KT 04/M01 A30 RMK A01 T00431012  RH  067%=      5-min Rain = 0
KWE1 190724Z 34023G30KT 04/M01 A30 RMK A01 T00431012  RH  067%=      5-min Rain = 0
KWE1 190725Z 35025G32KT 04/M01 A30 RMK A01 T00431012  RH  067%=      5-min Rain = 0
KWE1 190726Z 34023KT 04/M01 A30 RMK A01 T00431012  RH  067%=      5-min Rain = 0
KWE1 190727Z 34025G32KT 04/M01 A30 RMK A01 T00421012  RH  068%=      5-min Rain = 0
KWE1 190728Z 34029KT 04/M01 A30 RMK A01 T00421013  RH  067%=      5-min Rain = 0
KWE1 190729Z 34028G34KT 04/M02 A30 RMK A01 T00421015  RH  067%=      5-min Rain = 0
KWE1 190730Z 34025G35KT 04/M01 A30 RMK A01 T00421014  RH  067%=      5-min Rain = 0
KWE1 190731Z 34029KT 04/M02 A30 RMK A01 T00421015  RH  067%=      5-min Rain = 0
KWE1 190732Z 34032G37KT 04/M02 A30 RMK A01 T00411015  RH  066%=      5-min Rain = 0
KWE1 190733Z 35028KT 04/M02 A30 RMK A01 T00411016  RH  066%=      5-min Rain = 0
KWE1 190734Z 34026G31KT 04/M02 A30 RMK A01 T00411015  RH  067%=      5-min Rain = 0
KWE1 190735Z 34027G33KT 04/M02 A30 RMK A01 T00411015  RH  067%=      5-min Rain = 0
KWE1 190736Z 34028KT 04/M02 A3001 RMK A01 T00411015  RH  067%=      5-min Rain = 0
KWE1 190737Z 35028KT 04/M02 A3001 RMK A01 T00411016  RH  066%=      5-min Rain = 0
KWE1 190738Z 35028KT 04/M02 A3001 RMK A01 T00411016  RH  066%=      5-min Rain = 0
KWE1 190739Z 35028KT 04/M02 A3001 RMK A01 T00401017  RH  066%=      5-min Rain = 0
KWE1 190740Z 34025KT 04/M02 A3001 RMK A01 T00401017  RH  066%=      5-min Rain = 0
KWE1 190741Z 34026KT 04/M02 A3001 RMK A01 T00411016  RH  066%=      5-min Rain = 0
KWE1 190742Z 34023KT 04/M02 A3001 RMK A01 T00401017  RH  066%=      5-min Rain = 0
KWE1 190743Z 35025G31KT 04/M02 A3001 RMK A01 T00401017  RH  067%=      5-min Rain = 0
KWE1 190744Z 35025KT 04/M02 A3001 RMK A01 T00401017  RH  067%=      5-min Rain = 0
KWE1 190745Z 35024KT 04/M02 A3001 RMK A01 T00401017  RH  067%=      5-min Rain = 0
KWE1 190746Z 35021G27KT 04/M02 A3001 RMK A01 T00401016  RH  067%=      5-min Rain = 0
KWE1 190747Z 35022G27KT 04/M02 A3001 RMK A01 T00401016  RH  067%=      5-min Rain = 0
KWE1 190748Z 35023KT 04/M02 A3001 RMK A01 T00401016  RH  067%=      5-min Rain = 0
KWE1 190749Z 35022G27KT 04/M02 A3001 RMK A01 T00401017  RH  067%=      5-min Rain = 0
KWE1 190750Z 35023KT 04/M02 A3001 RMK A01 T00401017  RH  067%=      5-min Rain = 0
KWE1 190751Z 34020KT 04/M02 A3002 RMK A01 T00401017  RH  067%=      5-min Rain = 0
KWE1 190752Z 34017KT 04/M02 A3002 RMK A01 T00401016  RH  067%=      5-min Rain = 0
KWE1 190753Z 33023G30KT 04/M01 A3002 RMK A01 T00401013  RH  068%=      5-min Rain = 0
KWE1 190754Z 33020G25KT 04/M01 A3002 RMK A01 T00381012  RH  069%=      5-min Rain = 0
KWE1 190755Z 33020G27KT 04/M01 A3002 RMK A01 T00371012  RH  070%=      5-min Rain = 0
KWE1 190756Z 34016G21KT 04/M01 A3002 RMK A01 T00361011  RH  071%=      5-min Rain = 0
KWE1 190757Z 33021G26KT 04/M01 A3002 RMK A01 T00361010  RH  072%=      5-min Rain = 0
KWE1 190758Z 33018G26KT 04/M01 A3002 RMK A01 T00361010  RH  072%=      5-min Rain = 0
KWE1 190759Z 34021G27KT 04/M01 A3002 RMK A01 T00351010  RH  072%=      5-min Rain = 0
KWE1 190800Z 34021G27KT 04/M01 A3002 RMK A01 T00351010  RH  072%=      5-min Rain = 0
KWE1 190801Z 34024KT 04/M01 A3003 RMK A01 T00351010  RH  072%=      5-min Rain = 0
KWE1 190802Z 33025G31KT 04/M01 A3003 RMK A01 T00351011  RH  072%=      5-min Rain = 0
KWE1 190803Z 34026G32KT 03/M01 A3003 RMK A01 T00341012  RH  072%=      5-min Rain = 0
KWE1 190804Z 34028KT 03/M01 A3003 RMK A01 T00331013  RH  071%=      5-min Rain = 0
KWE1 190805Z 34026G31KT 03/M01 A3003 RMK A01 T00331013  RH  072%=      5-min Rain = 0
KWE1 190806Z 34024KT 03/M01 A3003 RMK A01 T00321014  RH  072%=      5-min Rain = 0
KWE1 190807Z 34025G34KT 03/M01 A3003 RMK A01 T00321013  RH  072%=      5-min Rain = 0
KWE1 190808Z 34029KT 03/M01 A3003 RMK A01 T00311013  RH  072%=      5-min Rain = 0
KWE1 190809Z 34026G31KT 03/M01 A3003 RMK A01 T00311014  RH  073%=      5-min Rain = 0
KWE1 190810Z 33024G31KT 03/M01 A3003 RMK A01 T00311013  RH  073%=      5-min Rain = 0
KWE1 190811Z 34022KT 03/M01 A3003 RMK A01 T00301012  RH  074%=      5-min Rain = 0
KWE1 190812Z 34024G30KT 03/M01 A3004 RMK A01 T00301012  RH  074%=      5-min Rain = 0
KWE1 190813Z 34021G28KT 03/M01 A3004 RMK A01 T00301011  RH  074%=      5-min Rain = 0
KWE1 190814Z 34023G28KT 03/M01 A3004 RMK A01 T00301010  RH  075%=      5-min Rain = 0
KWE1 190815Z 33024G31KT 03/M01 A3003 RMK A01 T00291010  RH  075%=      5-min Rain = 0
KWE1 190816Z 33022KT 03/M01 A3004 RMK A01 T00291010  RH  076%=      5-min Rain = 0
KWE1 190817Z 33020G25KT 03/M01 A3004 RMK A01 T00281009  RH  076%=      5-min Rain = 0
KWE1 190818Z 34019KT 03/M01 A3004 RMK A01 T00271007  RH  078%=      5-min Rain = 0
KWE1 190819Z 34019G24KT 03/M01 A3004 RMK A01 T00271006  RH  079%=      5-min Rain = 0
KWE1 190820Z 34018KT 03/M01 A3004 RMK A01 T00271005  RH  079%=      5-min Rain = 0
KWE1 190821Z 34016G22KT 03/M01 A3004 RMK A01 T00261005  RH  080%=      5-min Rain = 0
KWE1 190822Z 34017KT 03/M00 A3004 RMK A01 T00261004  RH  081%=      5-min Rain = 0
KWE1 190823Z 33016G22KT 03/M00 A3004 RMK A01 T00261003  RH  081%=      5-min Rain = 0
KWE1 190824Z 33020KT 03/M00 A3004 RMK A01 T00251003  RH  082%=      5-min Rain = 0
KWE1 190825Z 32019G24KT 02/M00 A3004 RMK A01 T00241004  RH  082%=      5-min Rain = 0
KWE1 190826Z 33023G28KT 02/M01 A3004 RMK A01 T00221005  RH  083%=      5-min Rain = 0
KWE1 190827Z 34021G28KT 02/M01 A3004 RMK A01 T00201005  RH  083%=      5-min Rain = 0
KWE1 190828Z 33019G26KT 02/M01 A3004 RMK A01 T00181006  RH  084%=      5-min Rain = 0
KWE1 190829Z 34022KT 02/M01 A3005 RMK A01 T00171005  RH  085%=      5-min Rain = 0
KWE1 190830Z 34019KT 02/M01 A3005 RMK A01 T00161005  RH  086%=      5-min Rain = 0
KWE1 190831Z 33020G29KT 02/M01 A3005 RMK A01 T00161005  RH  086%=      5-min Rain = 0
KWE1 190832Z 34021G27KT 02/M01 A3005 RMK A01 T00151005  RH  087%=      5-min Rain = 0
KWE1 190833Z 33026G32KT 01/M01 A3005 RMK A01 T00131007  RH  087%=      5-min Rain = 0
KWE1 190834Z 34024KT 01/M01 A3005 RMK A01 T00121008  RH  087%=      5-min Rain = 0
KWE1 190835Z 33022KT 01/M01 A3005 RMK A01 T00111008  RH  087%=      5-min Rain = 0
KWE1 190836Z 34024KT 01/M01 A3005 RMK A01 T00101008  RH  088%=      5-min Rain = 0
KWE1 190837Z 34022KT 01/M01 A3005 RMK A01 T00091008  RH  088%=      5-min Rain = 0
KWE1 190838Z 34019G27KT 01/M01 A3005 RMK A01 T00081008  RH  089%=      5-min Rain = 0
KWE1 190839Z 34020KT 01/M01 A3005 RMK A01 T00091007  RH  089%=      5-min Rain = 0
KWE1 190840Z 34021KT 01/M01 A3005 RMK A01 T00081007  RH  090%=      5-min Rain = 0
KWE1 190841Z 34020KT 01/M01 A3005 RMK A01 T00091006  RH  090%=      5-min Rain = 0
KWE1 190842Z 34020G25KT 01/M01 A3005 RMK A01 T00101005  RH  090%=      5-min Rain = 0.01
KWE1 190843Z 34019G24KT 01/M01 A3005 RMK A01 T00101005  RH  090%=      5-min Rain = 0
KWE1 190844Z 34016KT 01/M00 A3006 RMK A01 T00111004  RH  090%=      5-min Rain = 0
KWE1 190845Z 34017KT 01/M00 A3006 RMK A01 T00111003  RH  090%=      5-min Rain = 0
KWE1 190846Z 34020G25KT 01/M00 A3006 RMK A01 T00121003  RH  090%=      5-min Rain = 0
KWE1 190847Z 34019KT 01/M00 A3006 RMK A01 T00121003  RH  090%=      5-min Rain = 0
KWE1 190848Z 33015G20KT 01/M00 A3006 RMK A01 T00121004  RH  089%=      5-min Rain = 0
KWE1 190849Z 33020KT 01/M00 A3006 RMK A01 T00121004  RH  089%=      5-min Rain = 0
KWE1 190850Z 34018KT 01/M00 A3006 RMK A01 T00121004  RH  089%=      5-min Rain = 0
KWE1 190851Z 34014KT 01/M00 A3006 RMK A01 T00121004  RH  089%=      5-min Rain = 0
KWE1 190852Z 34015G21KT 01/M00 A3006 RMK A01 T00131003  RH  089%=      5-min Rain = 0
KWE1 190853Z 33016G21KT 01/M00 A3006 RMK A01 T00131003  RH  089%=      5-min Rain = 0
KWE1 190854Z 33015KT 01/M00 A3006 RMK A01 T00131002  RH  089%=      5-min Rain = 0
KWE1 190855Z 33014G21KT 01/M00 A3006 RMK A01 T00131002  RH  089%=      5-min Rain = 0
KWE1 190856Z 34016G22KT 01/M00 A3006 RMK A01 T00141002  RH  089%=      5-min Rain = 0
KWE1 190857Z 33013KT 01/M00 A3006 RMK A01 T00141002  RH  089%=      5-min Rain = 0
KWE1 190858Z 33014KT 01/M00 A3006 RMK A01 T00141002  RH  089%=      5-min Rain = 0
KWE1 190859Z 33013KT 01/M00 A3006 RMK A01 T00141001  RH  089%=      5-min Rain = 0
KWE1 190900Z 33015KT 01/M00 A3006 RMK A01 T00141001  RH  089%=      5-min Rain = 0
KWE1 190901Z 33013G18KT 02/M00 A3006 RMK A01 T00151001  RH  089%=      5-min Rain = 0
KWE1 190902Z 33014KT 02/M00 A3006 RMK A01 T00151001  RH  089%=      5-min Rain = 0
KWE1 190903Z 33014KT 02/M00 A3006 RMK A01 T00151002  RH  089%=      5-min Rain = 0
KWE1 190904Z 33010KT 02/M00 A3006 RMK A01 T00151001  RH  089%=      5-min Rain = 0
KWE1 190905Z 33012KT 02/M00 A3006 RMK A01 T00161001  RH  089%=      5-min Rain = 0
KWE1 190906Z 33013G18KT 02/00 A3006 RMK A01 T001600-0  RH  089%=      5-min Rain = 0
KWE1 190907Z 33015KT 02/00 A3006 RMK A01 T001600-0  RH  089%=      5-min Rain = 0
KWE1 190908Z 33012KT 02/M00 A3006 RMK A01 T00161001  RH  089%=      5-min Rain = 0
KWE1 190909Z 33014KT 02/M00 A3006 RMK A01 T00161001  RH  088%=      5-min Rain = 0
KWE1 190910Z 33011G16KT 02/M00 A3006 RMK A01 T00161001  RH  088%=      5-min Rain = 0
KWE1 190911Z 33013KT 02/M00 A3006 RMK A01 T00171001  RH  088%=      5-min Rain = 0
KWE1 190912Z 33015KT 02/M00 A3006 RMK A01 T00171001  RH  088%=      5-min Rain = 0
KWE1 190913Z 33014KT 02/M00 A3006 RMK A01 T00161002  RH  088%=      5-min Rain = 0
KWE1 190914Z 33012KT 02/M00 A3006 RMK A01 T00171002  RH  087%=      5-min Rain = 0
KWE1 190915Z 33012G17KT 02/M00 A3006 RMK A01 T00171002  RH  087%=      5-min Rain = 0
KWE1 190916Z 33013KT 02/M00 A3006 RMK A01 T00171002  RH  087%=      5-min Rain = 0
KWE1 190917Z 33014KT 02/M00 A3007 RMK A01 T00171002  RH  087%=      5-min Rain = 0
KWE1 190918Z 33011KT 02/M00 A3007 RMK A01 T00171002  RH  087%=      5-min Rain = 0
KWE1 190919Z 33013G19KT 02/M00 A3007 RMK A01 T00181002  RH  087%=      5-min Rain = 0
KWE1 190920Z 34017G22KT 02/M00 A3007 RMK A01 T00181003  RH  086%=      5-min Rain = 0
KWE1 190921Z 34018KT 02/M01 A3007 RMK A01 T00181005  RH  085%=      5-min Rain = 0
KWE1 190922Z 34014KT 02/M01 A3007 RMK A01 T00191005  RH  084%=      5-min Rain = 0
KWE1 190923Z 34014KT 02/M01 A3007 RMK A01 T00191006  RH  084%=      5-min Rain = 0
KWE1 190924Z 34012KT 02/M01 A3007 RMK A01 T00191006  RH  083%=      5-min Rain = 0
KWE1 190925Z 34014G20KT 02/M01 A3007 RMK A01 T00191006  RH  083%=      5-min Rain = 0
KWE1 190926Z 33015KT 02/M01 A3007 RMK A01 T00201006  RH  083%=      5-min Rain = 0
KWE1 190927Z 34018G23KT 02/M01 A3007 RMK A01 T00201007  RH  082%=      5-min Rain = 0
KWE1 190928Z 34019KT 02/M01 A3007 RMK A01 T00201009  RH  081%=      5-min Rain = 0
KWE1 190929Z 33018KT 02/M01 A3007 RMK A01 T00201010  RH  081%=      5-min Rain = 0
KWE1 190930Z 33018G23KT 02/M01 A3007 RMK A01 T00201011  RH  080%=      5-min Rain = 0
KWE1 190931Z 34020KT 02/M01 A3007 RMK A01 T00211011  RH  079%=      5-min Rain = 0
KWE1 190932Z 34017G22KT 02/M01 A3007 RMK A01 T00211012  RH  079%=      5-min Rain = 0
KWE1 190933Z 34015G20KT 02/M01 A3007 RMK A01 T00211012  RH  079%=      5-min Rain = 0
KWE1 190934Z 34018KT 02/M01 A3007 RMK A01 T00211011  RH  079%=      5-min Rain = 0
KWE1 190935Z 34018KT 02/M01 A3007 RMK A01 T00211012  RH  079%=      5-min Rain = 0
KWE1 190936Z 34014KT 02/M01 A3007 RMK A01 T00211012  RH  079%=      5-min Rain = 0
KWE1 190937Z 34018KT 02/M01 A3007 RMK A01 T00211011  RH  079%=      5-min Rain = 0
KWE1 190938Z 34014KT 02/M01 A3007 RMK A01 T00211011  RH  079%=      5-min Rain = 0
KWE1 190939Z 34013KT 02/M01 A3007 RMK A01 T00221010  RH  079%=      5-min Rain = 0
KWE1 190940Z 34016KT 02/M01 A3007 RMK A01 T00211010  RH  080%=      5-min Rain = 0
KWE1 190941Z 34016KT 02/M01 A3007 RMK A01 T00211011  RH  079%=      5-min Rain = 0
KWE1 190942Z 34017G22KT 02/M01 A3007 RMK A01 T00211012  RH  079%=      5-min Rain = 0
KWE1 190943Z 34015KT 02/M01 A3008 RMK A01 T00211012  RH  079%=      5-min Rain = 0
KWE1 190944Z 34018KT 02/M01 A3008 RMK A01 T00211013  RH  078%=      5-min Rain = 0
KWE1 190945Z 34018KT 02/M02 A3008 RMK A01 T00211015  RH  077%=      5-min Rain = 0
KWE1 190946Z 34016KT 02/M01 A3008 RMK A01 T00221014  RH  077%=      5-min Rain = 0
KWE1 190947Z 33013G18KT 02/M01 A3008 RMK A01 T00221013  RH  078%=      5-min Rain = 0
KWE1 190948Z 34011KT 02/M01 A3008 RMK A01 T00221012  RH  078%=      5-min Rain = 0
KWE1 190949Z 33015KT 02/M01 A3008 RMK A01 T00221011  RH  079%=      5-min Rain = 0
KWE1 190950Z 34014KT 02/M01 A3008 RMK A01 T00221012  RH  078%=      5-min Rain = 0
KWE1 190951Z 33012KT 02/M01 A3008 RMK A01 T00221012  RH  078%=      5-min Rain = 0
KWE1 190952Z 34013G18KT 02/M01 A3008 RMK A01 T00221012  RH  078%=      5-min Rain = 0
KWE1 190953Z 33014KT 02/M01 A3008 RMK A01 T00221011  RH  079%=      5-min Rain = 0
KWE1 190954Z 33011G16KT 02/M01 A3008 RMK A01 T00221011  RH  078%=      5-min Rain = 0
KWE1 190955Z 33012G17KT 02/M01 A3008 RMK A01 T00221011  RH  078%=      5-min Rain = 0
KWE1 190956Z 33011G16KT 02/M01 A3008 RMK A01 T00221011  RH  079%=      5-min Rain = 0
KWE1 190957Z 33013KT 02/M01 A3009 RMK A01 T00221011  RH  079%=      5-min Rain = 0
KWE1 190958Z 33011KT 02/M01 A3009 RMK A01 T00231011  RH  078%=      5-min Rain = 0
KWE1 190959Z 33011KT 02/M01 A3009 RMK A01 T00221011  RH  079%=      5-min Rain = 0
KWE1 191000Z 33009KT 02/M01 A3009 RMK A01 T00221011  RH  079%=      5-min Rain = 0
KWE1 191001Z 34011KT 02/M01 A3009 RMK A01 T00221010  RH  079%=      5-min Rain = 0
KWE1 191002Z 33010KT 02/M01 A3009 RMK A01 T00231011  RH  079%=      5-min Rain = 0
KWE1 191003Z 34013KT 02/M01 A3009 RMK A01 T00221011  RH  078%=      5-min Rain = 0
KWE1 191004Z 33009KT 02/M01 A3009 RMK A01 T00231012  RH  078%=      5-min Rain = 0
KWE1 191005Z 33010KT 02/M01 A3009 RMK A01 T00221011  RH  079%=      5-min Rain = 0
KWE1 191006Z 33009G15KT 02/M01 A3009 RMK A01 T00231011  RH  079%=      5-min Rain = 0
KWE1 191007Z 33010KT 02/M01 A3009 RMK A01 T00231011  RH  078%=      5-min Rain = 0
KWE1 191008Z 33011KT 02/M01 A3009 RMK A01 T00231011  RH  078%=      5-min Rain = 0
KWE1 191009Z 33012KT 02/M01 A3009 RMK A01 T00231012  RH  078%=      5-min Rain = 0
KWE1 191010Z 33012KT 02/M01 A3009 RMK A01 T00231012  RH  078%=      5-min Rain = 0
KWE1 191011Z 33011KT 02/M01 A301 RMK A01 T00231012  RH  077%=      5-min Rain = 0
KWE1 191012Z 33009KT 02/M01 A301 RMK A01 T00231012  RH  077%=      5-min Rain = 0
KWE1 191013Z 33010KT 02/M01 A301 RMK A01 T00231012  RH  077%=      5-min Rain = 0
KWE1 191014Z 33012KT 02/M01 A301 RMK A01 T00231012  RH  077%=      5-min Rain = 0
KWE1 191015Z 33010KT 02/M01 A301 RMK A01 T00241013  RH  077%=      5-min Rain = 0
KWE1 191016Z 34011KT 02/M01 A301 RMK A01 T00241013  RH  077%=      5-min Rain = 0
KWE1 191017Z 33010KT 02/M01 A301 RMK A01 T00241013  RH  077%=      5-min Rain = 0
KWE1 191018Z 33009KT 02/M01 A301 RMK A01 T00241013  RH  077%=      5-min Rain = 0
KWE1 191019Z 33009KT 02/M01 A301 RMK A01 T00241012  RH  077%=      5-min Rain = 0
KWE1 191020Z 33008KT 02/M01 A301 RMK A01 T00241011  RH  077%=      5-min Rain = 0
KWE1 191021Z 33008KT 02/M01 A301 RMK A01 T00241010  RH  078%=      5-min Rain = 0
KWE1 191022Z 33010KT 02/M01 A301 RMK A01 T00241010  RH  078%=      5-min Rain = 0
KWE1 191023Z 33006KT 02/M01 A301 RMK A01 T00241011  RH  077%=      5-min Rain = 0
KWE1 191024Z 32009KT 02/M01 A301 RMK A01 T00241010  RH  078%=      5-min Rain = 0
KWE1 191025Z 33011KT 02/M01 A301 RMK A01 T00241010  RH  078%=      5-min Rain = 0
KWE1 191026Z 33012KT 02/M01 A301 RMK A01 T00241012  RH  077%=      5-min Rain = 0
KWE1 191027Z 33011KT 02/M01 A301 RMK A01 T00241013  RH  076%=      5-min Rain = 0
KWE1 191028Z 33011KT 02/M01 A301 RMK A01 T00241013  RH  076%=      5-min Rain = 0
KWE1 191029Z 33009KT 02/M01 A301 RMK A01 T00241013  RH  076%=      5-min Rain = 0
KWE1 191030Z 33010KT 02/M01 A301 RMK A01 T00241012  RH  077%=      5-min Rain = 0
KWE1 191031Z 32009KT 02/M01 A301 RMK A01 T00241012  RH  077%=      5-min Rain = 0
KWE1 191032Z 32010KT 03/M01 A301 RMK A01 T00251011  RH  077%=      5-min Rain = 0
KWE1 191033Z 33011KT 03/M01 A301 RMK A01 T00251011  RH  077%=      5-min Rain = 0
KWE1 191034Z 33009KT 03/M01 A301 RMK A01 T00251011  RH  077%=      5-min Rain = 0
KWE1 191035Z 33011KT 03/M01 A301 RMK A01 T00251011  RH  077%=      5-min Rain = 0
KWE1 191036Z 32014KT 03/M01 A301 RMK A01 T00251012  RH  077%=      5-min Rain = 0
KWE1 191037Z 33011KT 03/M01 A301 RMK A01 T00251012  RH  076%=      5-min Rain = 0
KWE1 191038Z 33011G16KT 03/M01 A301 RMK A01 T00261011  RH  077%=      5-min Rain = 0
KWE1 191039Z 33013KT 03/M01 A301 RMK A01 T00261011  RH  076%=      5-min Rain = 0
KWE1 191040Z 34014KT 03/M01 A301 RMK A01 T00261011  RH  076%=      5-min Rain = 0
KWE1 191041Z 33013KT 03/M01 A301 RMK A01 T00261012  RH  076%=      5-min Rain = 0
KWE1 191042Z 33011KT 03/M01 A301 RMK A01 T00261012  RH  076%=      5-min Rain = 0
KWE1 191043Z 33011KT 03/M01 A301 RMK A01 T00261010  RH  077%=      5-min Rain = 0
KWE1 191044Z 34011KT 03/M01 A301 RMK A01 T00261010  RH  077%=      5-min Rain = 0
KWE1 191045Z 33013KT 03/M01 A301 RMK A01 T00271009  RH  077%=      5-min Rain = 0
KWE1 191046Z 34017KT 03/M01 A301 RMK A01 T00261010  RH  077%=      5-min Rain = 0
KWE1 191047Z 33015KT 03/M01 A301 RMK A01 T00271011  RH  076%=      5-min Rain = 0
KWE1 191048Z 34015KT 03/M01 A301 RMK A01 T00271011  RH  076%=      5-min Rain = 0
KWE1 191049Z 33016KT 03/M01 A301 RMK A01 T00281011  RH  075%=      5-min Rain = 0
KWE1 191050Z 33013KT 03/M01 A3011 RMK A01 T00281011  RH  076%=      5-min Rain = 0
KWE1 191051Z 33013KT 03/M01 A3011 RMK A01 T00281009  RH  077%=      5-min Rain = 0
KWE1 191052Z 33012KT 03/M01 A3011 RMK A01 T00281009  RH  077%=      5-min Rain = 0
KWE1 191053Z 33013G18KT 03/M01 A3011 RMK A01 T00281009  RH  076%=      5-min Rain = 0
KWE1 191054Z 33012G17KT 03/M01 A3011 RMK A01 T00281009  RH  077%=      5-min Rain = 0
KWE1 191055Z 33014KT 03/M01 A3011 RMK A01 T00281009  RH  076%=      5-min Rain = 0
KWE1 191056Z 33011KT 03/M01 A3011 RMK A01 T00281010  RH  076%=      5-min Rain = 0
KWE1 191057Z 34015KT 03/M01 A3011 RMK A01 T00281009  RH  076%=      5-min Rain = 0
KWE1 191058Z 34014KT 03/M01 A3011 RMK A01 T00291009  RH  076%=      5-min Rain = 0
KWE1 191059Z 33012KT 03/M01 A3011 RMK A01 T00291010  RH  076%=      5-min Rain = 0
KWE1 191100Z 33011KT 03/M01 A3011 RMK A01 T00291009  RH  076%=      5-min Rain = 0
KWE1 191101Z 33010KT 03/M01 A3012 RMK A01 T00291009  RH  076%=      5-min Rain = 0
KWE1 191102Z 34014KT 03/M01 A3012 RMK A01 T00291007  RH  077%=      5-min Rain = 0
KWE1 191103Z 34016KT 03/M01 A3012 RMK A01 T00291009  RH  076%=      5-min Rain = 0
KWE1 191104Z 33012KT 03/M01 A3012 RMK A01 T00301010  RH  075%=      5-min Rain = 0
KWE1 191105Z 33010KT 03/M01 A3012 RMK A01 T00301009  RH  076%=      5-min Rain = 0
KWE1 191106Z 34010KT 03/M01 A3012 RMK A01 T00301008  RH  076%=      5-min Rain = 0
KWE1 191107Z 34013KT 03/M01 A3012 RMK A01 T00301008  RH  076%=      5-min Rain = 0
KWE1 191108Z 34014KT 03/M01 A3012 RMK A01 T00301009  RH  075%=      5-min Rain = 0
KWE1 191109Z 35018G23KT 03/M01 A3012 RMK A01 T00301010  RH  075%=      5-min Rain = 0
KWE1 191110Z 34018KT 03/M01 A3012 RMK A01 T00301013  RH  073%=      5-min Rain = 0
KWE1 191111Z 34014G19KT 03/M01 A3012 RMK A01 T00311014  RH  072%=      5-min Rain = 0
KWE1 191112Z 34019KT 03/M01 A3012 RMK A01 T00311014  RH  073%=      5-min Rain = 0
KWE1 191113Z 34025G30KT 03/M02 A3012 RMK A01 T00311017  RH  071%=      5-min Rain = 0
KWE1 191114Z 33024G29KT 03/M02 A3012 RMK A01 T00311021  RH  069%=      5-min Rain = 0
KWE1 191115Z 34024G29KT 03/M02 A3012 RMK A01 T00311022  RH  068%=      5-min Rain = 0
KWE1 191116Z 34024KT 03/M02 A3012 RMK A01 T00311022  RH  068%=      5-min Rain = 0
KWE1 191117Z 34022G30KT 03/M02 A3012 RMK A01 T00301023  RH  068%=      5-min Rain = 0
KWE1 191118Z 34026G31KT 03/M02 A3012 RMK A01 T00301023  RH  068%=      5-min Rain = 0
KWE1 191119Z 34022G27KT 03/M03 A3012 RMK A01 T00291025  RH  068%=      5-min Rain = 0
KWE1 191120Z 34021G32KT 03/M02 A3013 RMK A01 T00291024  RH  068%=      5-min Rain = 0
KWE1 191121Z 34028G34KT 03/M03 A3012 RMK A01 T00281026  RH  068%=      5-min Rain = 0
KWE1 191122Z 34025G30KT 03/M03 A3013 RMK A01 T00281028  RH  066%=      5-min Rain = 0
KWE1 191123Z 34025KT 03/M03 A3013 RMK A01 T00271028  RH  067%=      5-min Rain = 0
KWE1 191124Z 34026G31KT 03/M03 A3013 RMK A01 T00271028  RH  067%=      5-min Rain = 0
KWE1 191125Z 34024G30KT 03/M03 A3013 RMK A01 T00271028  RH  067%=      5-min Rain = 0
KWE1 191126Z 34027KT 03/M03 A3013 RMK A01 T00271028  RH  067%=      5-min Rain = 0
KWE1 191127Z 34027G35KT 03/M03 A3013 RMK A01 T00261030  RH  066%=      5-min Rain = 0
KWE1 191128Z 34024G29KT 03/M03 A3013 RMK A01 T00261030  RH  066%=      5-min Rain = 0
KWE1 191129Z 35025G32KT 03/M03 A3013 RMK A01 T00251030  RH  067%=      5-min Rain = 0
KWE1 191130Z 34026G33KT 03/M03 A3013 RMK A01 T00251031  RH  067%=      5-min Rain = 0
KWE1 191131Z 34026KT 03/M03 A3013 RMK A01 T00251032  RH  066%=      5-min Rain = 0
KWE1 191132Z 34028KT 02/M03 A3013 RMK A01 T00241033  RH  066%=      5-min Rain = 0
KWE1 191133Z 35024G30KT 02/M03 A3013 RMK A01 T00241033  RH  066%=      5-min Rain = 0
KWE1 191134Z 35026G31KT 02/M03 A3013 RMK A01 T00241033  RH  066%=      5-min Rain = 0
KWE1 191135Z 34026G31KT 02/M03 A3013 RMK A01 T00231033  RH  066%=      5-min Rain = 0
KWE1 191136Z 36026KT 02/M03 A3014 RMK A01 T00231033  RH  066%=      5-min Rain = 0
KWE1 191137Z 35029G35KT 02/M04 A3014 RMK A01 T00231035  RH  066%=      5-min Rain = 0
KWE1 191138Z 35026KT 02/M04 A3014 RMK A01 T00231036  RH  065%=      5-min Rain = 0
KWE1 191139Z 35023G28KT 02/M04 A3014 RMK A01 T00231035  RH  066%=      5-min Rain = 0
KWE1 191140Z 35020G25KT 02/M03 A3014 RMK A01 T00221033  RH  067%=      5-min Rain = 0
KWE1 191141Z 35024KT 02/M03 A3014 RMK A01 T00221033  RH  067%=      5-min Rain = 0
KWE1 191142Z 35024KT 02/M03 A3014 RMK A01 T00221034  RH  067%=      5-min Rain = 0
KWE1 191143Z 35023G29KT 02/M04 A3014 RMK A01 T00221035  RH  066%=      5-min Rain = 0
KWE1 191144Z 35018KT 02/M03 A3015 RMK A01 T00221034  RH  067%=      5-min Rain = 0
KWE1 191145Z 35017KT 02/M03 A3015 RMK A01 T00211031  RH  068%=      5-min Rain = 0
KWE1 191146Z 35021G26KT 02/M03 A3015 RMK A01 T00211031  RH  068%=      5-min Rain = 0
KWE1 191147Z 35021KT 02/M03 A3015 RMK A01 T00211032  RH  068%=      5-min Rain = 0
KWE1 191148Z 35020G25KT 02/M03 A3015 RMK A01 T00211032  RH  068%=      5-min Rain = 0
KWE1 191149Z 35019KT 02/M03 A3015 RMK A01 T00211032  RH  068%=      5-min Rain = 0
KWE1 191150Z 35022G27KT 02/M03 A3015 RMK A01 T00211031  RH  068%=      5-min Rain = 0
KWE1 191151Z 35019KT 02/M03 A3015 RMK A01 T00211031  RH  068%=      5-min Rain = 0
KWE1 191152Z 35021KT 02/M03 A3015 RMK A01 T00211031  RH  068%=      5-min Rain = 0
KWE1 191153Z 34020KT 02/M03 A3015 RMK A01 T00201033  RH  068%=      5-min Rain = 0
KWE1 191154Z 35020G25KT 02/M03 A3015 RMK A01 T00201032  RH  068%=      5-min Rain = 0
KWE1 191155Z 34020KT 02/M03 A3015 RMK A01 T00201033  RH  068%=      5-min Rain = 0
KWE1 191156Z 34018KT 02/M03 A3016 RMK A01 T00201033  RH  068%=      5-min Rain = 0
KWE1 191157Z 35023KT 02/M03 A3016 RMK A01 T00201033  RH  068%=      5-min Rain = 0
KWE1 191158Z 34021G26KT 02/M03 A3016 RMK A01 T00201034  RH  067%=      5-min Rain = 0
KWE1 191159Z 33020G25KT 02/M03 A3016 RMK A01 T00201034  RH  067%=      5-min Rain = 0
KWE1 191200Z 34025G30KT 02/M04 A3016 RMK A01 T00201035  RH  067%=      5-min Rain = 0
KWE1 191201Z 34023G31KT 02/M04 A3016 RMK A01 T00201036  RH  067%=      5-min Rain = 0
KWE1 191202Z 34024KT 02/M04 A3016 RMK A01 T00191037  RH  066%=      5-min Rain = 0
KWE1 191203Z 34021G27KT 02/M04 A3016 RMK A01 T00191037  RH  066%=      5-min Rain = 0
KWE1 191204Z 34021G27KT 02/M04 A3016 RMK A01 T00191037  RH  067%=      5-min Rain = 0
KWE1 191205Z 34021KT 02/M04 A3017 RMK A01 T00181037  RH  067%=      5-min Rain = 0
KWE1 191206Z 34022G27KT 02/M04 A3017 RMK A01 T00181038  RH  066%=      5-min Rain = 0
KWE1 191207Z 34023G29KT 02/M04 A3017 RMK A01 T00171039  RH  066%=      5-min Rain = 0
KWE1 191208Z 34023KT 02/M04 A3017 RMK A01 T00171040  RH  066%=      5-min Rain = 0
KWE1 191209Z 34024KT 02/M04 A3017 RMK A01 T00171041  RH  066%=      5-min Rain = 0
KWE1 191210Z 34023KT 02/M04 A3017 RMK A01 T00171041  RH  065%=      5-min Rain = 0
KWE1 191211Z 34021KT 02/M04 A3017 RMK A01 T00161041  RH  066%=      5-min Rain = 0
KWE1 191212Z 34019KT 02/M04 A3017 RMK A01 T00161041  RH  066%=      5-min Rain = 0
KWE1 191213Z 34021G26KT 02/M04 A3017 RMK A01 T00161039  RH  067%=      5-min Rain = 0
KWE1 191214Z 33017G22KT 02/M04 A3017 RMK A01 T00161040  RH  067%=      5-min Rain = 0
KWE1 191215Z 33017KT 02/M04 A3017 RMK A01 T00151038  RH  068%=      5-min Rain = 0
KWE1 191216Z 33018G24KT 02/M04 A3017 RMK A01 T00151038  RH  068%=      5-min Rain = 0
KWE1 191217Z 33021KT 02/M04 A3018 RMK A01 T00151039  RH  067%=      5-min Rain = 0
KWE1 191218Z 34018G24KT 02/M04 A3018 RMK A01 T00151040  RH  067%=      5-min Rain = 0
KWE1 191219Z 34024KT 01/M04 A3018 RMK A01 T00141041  RH  067%=      5-min Rain = 0
KWE1 191220Z 34024KT 01/M04 A3018 RMK A01 T00141042  RH  066%=      5-min Rain = 0
KWE1 191221Z 34023KT 01/M04 A3018 RMK A01 T00141043  RH  066%=      5-min Rain = 0
KWE1 191222Z 34023KT 01/M04 A3018 RMK A01 T00131043  RH  066%=      5-min Rain = 0
KWE1 191223Z 34020G25KT 01/M04 A3018 RMK A01 T00131043  RH  066%=      5-min Rain = 0
KWE1 191224Z 34020KT 01/M04 A3018 RMK A01 T00141042  RH  066%=      5-min Rain = 0
KWE1 191225Z 34022KT 01/M04 A3018 RMK A01 T00131042  RH  066%=      5-min Rain = 0
KWE1 191226Z 33018KT 01/M04 A3018 RMK A01 T00131042  RH  066%=      5-min Rain = 0
KWE1 191227Z 34016G21KT 01/M04 A3018 RMK A01 T00131042  RH  067%=      5-min Rain = 0
KWE1 191228Z 33013KT 01/M04 A3019 RMK A01 T00131041  RH  067%=      5-min Rain = 0
KWE1 191229Z 33017KT 01/M04 A3019 RMK A01 T00131040  RH  068%=      5-min Rain = 0
KWE1 191230Z 34022KT 01/M04 A3019 RMK A01 T00131042  RH  067%=      5-min Rain = 0
KWE1 191231Z 33016G21KT 01/M04 A3019 RMK A01 T00121044  RH  066%=      5-min Rain = 0
KWE1 191232Z 34017KT 01/M04 A3019 RMK A01 T00121043  RH  067%=      5-min Rain = 0
KWE1 191233Z 33016KT 01/M04 A3019 RMK A01 T00121042  RH  067%=      5-min Rain = 0
KWE1 191234Z 33017G24KT 01/M04 A3019 RMK A01 T00111042  RH  067%=      5-min Rain = 0
KWE1 191235Z 34019G25KT 01/M04 A3019 RMK A01 T00111042  RH  068%=      5-min Rain = 0
KWE1 191236Z 34020G25KT 01/M04 A3019 RMK A01 T00111044  RH  067%=      5-min Rain = 0
KWE1 191237Z 34021G27KT 01/M04 A3019 RMK A01 T00111044  RH  067%=      5-min Rain = 0
KWE1 191238Z 34023KT 01/M05 A302 RMK A01 T00101046  RH  066%=      5-min Rain = 0
KWE1 191239Z 34019G25KT 01/M05 A302 RMK A01 T00101046  RH  066%=      5-min Rain = 0
KWE1 191240Z 33016KT 01/M05 A302 RMK A01 T00091045  RH  067%=      5-min Rain = 0
KWE1 191241Z 33016G21KT 01/M05 A302 RMK A01 T00091045  RH  067%=      5-min Rain = 0
KWE1 191242Z 34021G26KT 01/M04 A302 RMK A01 T00091044  RH  068%=      5-min Rain = 0
KWE1 191243Z 33021G26KT 01/M05 A302 RMK A01 T00091045  RH  067%=      5-min Rain = 0
KWE1 191244Z 34019G24KT 01/M05 A302 RMK A01 T00091046  RH  067%=      5-min Rain = 0
KWE1 191245Z 34023KT 01/M05 A302 RMK A01 T00091046  RH  067%=      5-min Rain = 0
KWE1 191246Z 34018G25KT 01/M05 A302 RMK A01 T00091047  RH  066%=      5-min Rain = 0
KWE1 191247Z 33018KT 01/M05 A302 RMK A01 T00091046  RH  067%=      5-min Rain = 0
KWE1 191248Z 34017KT 01/M05 A302 RMK A01 T00081046  RH  067%=      5-min Rain = 0
KWE1 191249Z 34017KT 01/M05 A3021 RMK A01 T00081045  RH  068%=      5-min Rain = 0
KWE1 191250Z 34018KT 01/M05 A302 RMK A01 T00081045  RH  068%=      5-min Rain = 0
KWE1 191251Z 34018KT 01/M05 A3021 RMK A01 T00071047  RH  067%=      5-min Rain = 0
KWE1 191252Z 34017G22KT 01/M05 A3021 RMK A01 T00071046  RH  067%=      5-min Rain = 0
KWE1 191253Z 34017KT 01/M05 A3021 RMK A01 T00061047  RH  067%=      5-min Rain = 0
KWE1 191254Z 34016KT 01/M05 A3021 RMK A01 T00061046  RH  068%=      5-min Rain = 0
KWE1 191255Z 34015KT 01/M05 A3021 RMK A01 T00061046  RH  068%=      5-min Rain = 0
KWE1 191256Z 34017KT 01/M05 A3021 RMK A01 T00061046  RH  068%=      5-min Rain = 0
KWE1 191257Z 33012KT 01/M05 A3021 RMK A01 T00061047  RH  068%=      5-min Rain = 0
KWE1 191258Z 33015KT 01/M05 A3021 RMK A01 T00061045  RH  069%=      5-min Rain = 0
KWE1 191259Z 34015KT 01/M05 A3021 RMK A01 T00051046  RH  069%=      5-min Rain = 0
KWE1 191300Z 33016KT 01/M05 A3021 RMK A01 T00051046  RH  069%=      5-min Rain = 0
KWE1 191301Z 33015KT 01/M05 A3021 RMK A01 T00051047  RH  068%=      5-min Rain = 0
KWE1 191302Z 33015KT 01/M05 A3021 RMK A01 T00051047  RH  068%=      5-min Rain = 0
KWE1 191303Z 33014G19KT 01/M05 A3021 RMK A01 T00051047  RH  068%=      5-min Rain = 0
KWE1 191304Z 33016KT 01/M05 A3021 RMK A01 T00051046  RH  069%=      5-min Rain = 0
KWE1 191305Z 34015G20KT 01/M05 A3021 RMK A01 T00051046  RH  069%=      5-min Rain = 0
KWE1 191306Z 33017KT 00/M05 A3021 RMK A01 T00041046  RH  069%=      5-min Rain = 0
KWE1 191307Z 33015KT 00/M05 A3021 RMK A01 T00041047  RH  069%=      5-min Rain = 0
KWE1 191308Z 33014KT 00/M05 A3021 RMK A01 T00041047  RH  069%=      5-min Rain = 0
KWE1 191309Z 33012KT 00/M05 A3021 RMK A01 T00041046  RH  069%=      5-min Rain = 0
KWE1 191310Z 33013G18KT 00/M05 A3021 RMK A01 T00041045  RH  070%=      5-min Rain = 0
KWE1 191311Z 33015G20KT 00/M05 A3021 RMK A01 T00031045  RH  070%=      5-min Rain = 0
KWE1 191312Z 33016KT 00/M05 A3021 RMK A01 T00031046  RH  069%=      5-min Rain = 0
KWE1 191313Z 33014KT 00/M05 A3021 RMK A01 T00031047  RH  069%=      5-min Rain = 0
KWE1 191314Z 34016KT 00/M05 A3021 RMK A01 T00031047  RH  069%=      5-min Rain = 0
KWE1 191315Z 34017KT 00/M05 A3021 RMK A01 T00031047  RH  069%=      5-min Rain = 0
KWE1 191316Z 33015KT 00/M05 A3021 RMK A01 T00031047  RH  069%=      5-min Rain = 0
KWE1 191317Z 34018KT 00/M05 A3021 RMK A01 T00031047  RH  069%=      5-min Rain = 0
KWE1 191318Z 34015KT 00/M05 A3021 RMK A01 T00041048  RH  068%=      5-min Rain = 0
KWE1 191319Z 34014KT 00/M05 A3021 RMK A01 T00041048  RH  068%=      5-min Rain = 0
KWE1 191320Z 34014KT 00/M05 A3022 RMK A01 T00041047  RH  069%=      5-min Rain = 0
KWE1 191321Z 34017KT 00/M05 A3021 RMK A01 T00031047  RH  069%=      5-min Rain = 0
KWE1 191322Z 34016KT 00/M05 A3022 RMK A01 T00041048  RH  069%=      5-min Rain = 0
KWE1 191323Z 34014KT 00/M05 A3022 RMK A01 T00031048  RH  068%=      5-min Rain = 0
KWE1 191324Z 34014KT 00/M05 A3022 RMK A01 T00031048  RH  068%=      5-min Rain = 0
KWE1 191325Z 33013KT 00/M05 A3022 RMK A01 T00031048  RH  069%=      5-min Rain = 0
KWE1 191326Z 34014KT 00/M05 A3022 RMK A01 T00031047  RH  069%=      5-min Rain = 0
KWE1 191327Z 34016KT 00/M05 A3022 RMK A01 T00031048  RH  069%=      5-min Rain = 0
KWE1 191328Z 34016KT 00/M05 A3022 RMK A01 T00031048  RH  068%=      5-min Rain = 0
KWE1 191329Z 34014KT 00/M05 A3022 RMK A01 T00041049  RH  068%=      5-min Rain = 0
KWE1 191330Z 34014KT 00/M05 A3022 RMK A01 T00031048  RH  069%=      5-min Rain = 0
KWE1 191331Z 34011KT 00/M05 A3022 RMK A01 T00031047  RH  069%=      5-min Rain = 0
KWE1 191332Z 34013G18KT 00/M05 A3022 RMK A01 T00021047  RH  070%=      5-min Rain = 0
KWE1 191333Z 33011KT 00/M05 A3022 RMK A01 T00021047  RH  069%=      5-min Rain = 0
KWE1 191334Z 33014KT 00/M05 A3022 RMK A01 T00021048  RH  069%=      5-min Rain = 0
KWE1 191335Z 33012KT 00/M05 A3022 RMK A01 T00021048  RH  069%=      5-min Rain = 0
KWE1 191336Z 33013KT 00/M05 A3022 RMK A01 T00021048  RH  069%=      5-min Rain = 0
KWE1 191337Z 33012KT 00/M05 A3022 RMK A01 T00021048  RH  069%=      5-min Rain = 0
KWE1 191338Z 33011KT 00/M05 A3022 RMK A01 T00021047  RH  070%=      5-min Rain = 0
KWE1 191339Z 33013KT 00/M05 A3022 RMK A01 T00021047  RH  070%=      5-min Rain = 0
KWE1 191340Z 33012KT 00/M05 A3022 RMK A01 T00021047  RH  070%=      5-min Rain = 0
KWE1 191341Z 33013KT 00/M05 A3022 RMK A01 T00021047  RH  070%=      5-min Rain = 0
KWE1 191342Z 33012KT 00/M05 A3022 RMK A01 T00021048  RH  069%=      5-min Rain = 0
KWE1 191343Z 34011KT 00/M05 A3022 RMK A01 T00021047  RH  070%=      5-min Rain = 0
KWE1 191344Z 33013KT 00/M05 A3022 RMK A01 T00021046  RH  070%=      5-min Rain = 0
KWE1 191345Z 34014KT 00/M05 A3022 RMK A01 T00011046  RH  070%=      5-min Rain = 0
KWE1 191346Z 34014KT 00/M05 A3022 RMK A01 T00011047  RH  070%=      5-min Rain = 0
KWE1 191347Z 34013KT 00/M05 A3022 RMK A01 T00011048  RH  069%=      5-min Rain = 0
KWE1 191348Z 34013KT 00/M05 A3022 RMK A01 T00021047  RH  070%=      5-min Rain = 0
KWE1 191349Z 33013KT 00/M05 A3022 RMK A01 T00021047  RH  070%=      5-min Rain = 0
KWE1 191350Z 34014KT 00/M05 A3022 RMK A01 T00021048  RH  069%=      5-min Rain = 0
KWE1 191351Z 34014KT 00/M05 A3022 RMK A01 T00021048  RH  069%=      5-min Rain = 0
KWE1 191352Z 34012KT 00/M05 A3022 RMK A01 T00021048  RH  069%=      5-min Rain = 0
KWE1 191353Z 34012KT 00/M05 A3022 RMK A01 T00021047  RH  070%=      5-min Rain = 0
KWE1 191354Z 34014KT 00/M05 A3022 RMK A01 T00021047  RH  070%=      5-min Rain = 0
KWE1 191355Z 34016KT 00/M05 A3022 RMK A01 T00021048  RH  069%=      5-min Rain = 0
KWE1 191356Z 34013KT 00/M05 A3022 RMK A01 T00021049  RH  069%=      5-min Rain = 0
KWE1 191357Z 34011KT 00/M05 A3022 RMK A01 T00021048  RH  069%=      5-min Rain = 0
KWE1 191358Z 34013KT 00/M05 A3022 RMK A01 T00021047  RH  069%=      5-min Rain = 0
KWE1 191359Z 33012KT 00/M05 A3023 RMK A01 T00021047  RH  069%=      5-min Rain = 0
KWE1 191400Z 33014KT 00/M05 A3022 RMK A01 T00021047  RH  070%=      5-min Rain = 0
KWE1 191401Z 33014KT 00/M05 A3022 RMK A01 T00021048  RH  069%=      5-min Rain = 0
KWE1 191402Z 34011KT 00/M05 A3022 RMK A01 T00021048  RH  069%=      5-min Rain = 0
KWE1 191403Z 34012KT 00/M05 A3023 RMK A01 T00021047  RH  069%=      5-min Rain = 0
KWE1 191404Z 34012KT 00/M05 A3023 RMK A01 T00021047  RH  070%=      5-min Rain = 0
KWE1 191405Z 34012KT 00/M05 A3023 RMK A01 T00021046  RH  070%=      5-min Rain = 0
KWE1 191406Z 34013G18KT 00/M05 A3023 RMK A01 T00021047  RH  070%=      5-min Rain = 0
KWE1 191407Z 33014KT 00/M05 A3023 RMK A01 T00021047  RH  069%=      5-min Rain = 0
KWE1 191408Z 34014KT 00/M05 A3023 RMK A01 T00031047  RH  069%=      5-min Rain = 0
KWE1 191409Z 33014KT 00/M05 A3023 RMK A01 T00031047  RH  069%=      5-min Rain = 0
KWE1 191410Z 33014KT 00/M05 A3023 RMK A01 T00031048  RH  069%=      5-min Rain = 0
KWE1 191411Z 33015G20KT 00/M05 A3023 RMK A01 T00031048  RH  069%=      5-min Rain = 0
KWE1 191412Z 33016KT 00/M05 A3023 RMK A01 T00041048  RH  068%=      5-min Rain = 0
KWE1 191413Z 33016KT 00/M05 A3023 RMK A01 T00041048  RH  068%=      5-min Rain = 0
KWE1 191414Z 33016KT 00/M05 A3023 RMK A01 T00041048  RH  068%=      5-min Rain = 0
KWE1 191415Z 33016G21KT 00/M05 A3023 RMK A01 T00041048  RH  068%=      5-min Rain = 0
KWE1 191416Z 33013KT 00/M05 A3024 RMK A01 T00041048  RH  068%=      5-min Rain = 0
KWE1 191417Z 33011KT 00/M05 A3024 RMK A01 T00041047  RH  068%=      5-min Rain = 0
KWE1 191418Z 33014KT 01/M05 A3024 RMK A01 T00051046  RH  069%=      5-min Rain = 0
KWE1 191419Z 33012KT 01/M05 A3024 RMK A01 T00051046  RH  069%=      5-min Rain = 0
KWE1 191420Z 33013G18KT 01/M05 A3024 RMK A01 T00051046  RH  069%=      5-min Rain = 0
KWE1 191421Z 33013KT 01/M05 A3024 RMK A01 T00051046  RH  069%=      5-min Rain = 0
KWE1 191422Z 34012KT 01/M05 A3024 RMK A01 T00051046  RH  069%=      5-min Rain = 0
KWE1 191423Z 34014G22KT 01/M05 A3024 RMK A01 T00061045  RH  069%=      5-min Rain = 0
KWE1 191424Z 34015KT 01/M05 A3024 RMK A01 T00051046  RH  068%=      5-min Rain = 0
KWE1 191425Z 34017G22KT 01/M05 A3024 RMK A01 T00061047  RH  068%=      5-min Rain = 0
KWE1 191426Z 34016KT 01/M05 A3024 RMK A01 T00061048  RH  067%=      5-min Rain = 0
KWE1 191427Z 34018KT 01/M05 A3024 RMK A01 T00061048  RH  067%=      5-min Rain = 0
KWE1 191428Z 34020KT 01/M05 A3024 RMK A01 T00061049  RH  066%=      5-min Rain = 0
KWE1 191429Z 34018KT 01/M05 A3024 RMK A01 T00071050  RH  066%=      5-min Rain = 0
KWE1 191430Z 34019KT 01/M05 A3024 RMK A01 T00071050  RH  066%=      5-min Rain = 0
KWE1 191431Z 33020G25KT 01/M05 A3024 RMK A01 T00071050  RH  065%=      5-min Rain = 0
KWE1 191432Z 34018G24KT 01/M05 A3024 RMK A01 T00081052  RH  065%=      5-min Rain = 0
KWE1 191433Z 33023G28KT 01/M05 A3025 RMK A01 T00081053  RH  064%=      5-min Rain = 0
KWE1 191434Z 34023KT 01/M05 A3025 RMK A01 T00081054  RH  063%=      5-min Rain = 0
KWE1 191435Z 34024KT 01/M06 A3025 RMK A01 T00081055  RH  063%=      5-min Rain = 0
KWE1 191436Z 34020KT 01/M06 A3025 RMK A01 T00081055  RH  063%=      5-min Rain = 0
KWE1 191437Z 34021KT 01/M05 A3025 RMK A01 T00091054  RH  063%=      5-min Rain = 0
KWE1 191438Z 34023KT 01/M05 A3025 RMK A01 T00091054  RH  063%=      5-min Rain = 0
KWE1 191439Z 34023G29KT 01/M06 A3025 RMK A01 T00091056  RH  062%=      5-min Rain = 0
KWE1 191440Z 33023G28KT 01/M06 A3025 RMK A01 T00091056  RH  062%=      5-min Rain = 0
KWE1 191441Z 33018G23KT 01/M06 A3025 RMK A01 T00091057  RH  061%=      5-min Rain = 0
KWE1 191442Z 34018G25KT 01/M05 A3025 RMK A01 T00101053  RH  063%=      5-min Rain = 0
KWE1 191443Z 34020G25KT 01/M05 A3025 RMK A01 T00101052  RH  063%=      5-min Rain = 0
KWE1 191444Z 34020KT 01/M05 A3025 RMK A01 T00101053  RH  063%=      5-min Rain = 0
KWE1 191445Z 34022KT 01/M05 A3025 RMK A01 T00101054  RH  062%=      5-min Rain = 0
KWE1 191446Z 34019KT 01/M06 A3025 RMK A01 T00101055  RH  062%=      5-min Rain = 0
KWE1 191447Z 34018KT 01/M05 A3025 RMK A01 T00111053  RH  062%=      5-min Rain = 0
KWE1 191448Z 33021KT 01/M05 A3025 RMK A01 T00111053  RH  062%=      5-min Rain = 0
KWE1 191449Z 34023KT 01/M05 A3026 RMK A01 T00111054  RH  062%=      5-min Rain = 0
KWE1 191450Z 34020KT 01/M06 A3026 RMK A01 T00111055  RH  061%=      5-min Rain = 0
KWE1 191451Z 34021G26KT 01/M05 A3026 RMK A01 T00111054  RH  062%=      5-min Rain = 0
KWE1 191452Z 34023KT 01/M06 A3026 RMK A01 T00111055  RH  061%=      5-min Rain = 0
KWE1 191453Z 34018KT 01/M06 A3026 RMK A01 T00121055  RH  061%=      5-min Rain = 0
KWE1 191454Z 34017KT 01/M05 A3026 RMK A01 T00121053  RH  062%=      5-min Rain = 0
KWE1 191455Z 34017KT 01/M05 A3026 RMK A01 T00121051  RH  063%=      5-min Rain = 0
KWE1 191456Z 34022KT 01/M05 A3026 RMK A01 T00131052  RH  062%=      5-min Rain = 0
KWE1 191457Z 34019KT 01/M05 A3026 RMK A01 T00131054  RH  061%=      5-min Rain = 0
KWE1 191458Z 34018KT 01/M05 A3026 RMK A01 T00121054  RH  061%=      5-min Rain = 0
KWE1 191459Z 33018KT 01/M05 A3026 RMK A01 T00121053  RH  062%=      5-min Rain = 0
KWE1 191500Z 34016KT 01/M05 A3026 RMK A01 T00121053  RH  062%=      5-min Rain = 0
KWE1 191501Z 34018KT 01/M05 A3026 RMK A01 T00131052  RH  062%=      5-min Rain = 0
KWE1 191502Z 34022G27KT 01/M05 A3026 RMK A01 T00131052  RH  062%=      5-min Rain = 0
KWE1 191503Z 34021KT 01/M05 A3026 RMK A01 T00131054  RH  061%=      5-min Rain = 0
KWE1 191504Z 34022KT 01/M06 A3026 RMK A01 T00131055  RH  060%=      5-min Rain = 0
KWE1 191505Z 34021KT 01/M06 A3026 RMK A01 T00121056  RH  060%=      5-min Rain = 0
KWE1 191506Z 35025G30KT 01/M06 A3027 RMK A01 T00121056  RH  060%=      5-min Rain = 0
KWE1 191507Z 34022G28KT 01/M06 A3027 RMK A01 T00121057  RH  060%=      5-min Rain = 0
KWE1 191508Z 34021G27KT 01/M06 A3027 RMK A01 T00121056  RH  060%=      5-min Rain = 0
KWE1 191509Z 34020KT 01/M06 A3027 RMK A01 T00121056  RH  060%=      5-min Rain = 0
KWE1 191510Z 34020G28KT 01/M05 A3027 RMK A01 T00131054  RH  061%=      5-min Rain = 0
KWE1 191511Z 34023KT 01/M05 A3027 RMK A01 T00141054  RH  060%=      5-min Rain = 0
KWE1 191512Z 34028G33KT 01/M06 A3027 RMK A01 T00131057  RH  059%=      5-min Rain = 0
KWE1 191513Z 35025KT 01/M06 A3027 RMK A01 T00131059  RH  059%=      5-min Rain = 0
KWE1 191514Z 35026KT 01/M06 A3027 RMK A01 T00131058  RH  059%=      5-min Rain = 0
KWE1 191515Z 34025G30KT 01/M06 A3027 RMK A01 T00131059  RH  059%=      5-min Rain = 0
KWE1 191516Z 35027KT 01/M06 A3027 RMK A01 T00131059  RH  059%=      5-min Rain = 0
KWE1 191517Z 35027G32KT 01/M06 A3027 RMK A01 T00131059  RH  059%=      5-min Rain = 0
KWE1 191518Z 35024G31KT 01/M06 A3027 RMK A01 T00131061  RH  058%=      5-min Rain = 0
KWE1 191519Z 35025KT 01/M06 A3027 RMK A01 T00131060  RH  058%=      5-min Rain = 0
KWE1 191520Z 35021G27KT 01/M06 A3027 RMK A01 T00141057  RH  059%=      5-min Rain = 0
KWE1 191521Z 34022KT 02/M06 A3027 RMK A01 T00151055  RH  060%=      5-min Rain = 0
KWE1 191522Z 34022KT 02/M06 A3027 RMK A01 T00151055  RH  059%=      5-min Rain = 0
KWE1 191523Z 34026G31KT 02/M06 A3027 RMK A01 T00161056  RH  059%=      5-min Rain = 0
KWE1 191524Z 34027KT 02/M06 A3027 RMK A01 T00151059  RH  058%=      5-min Rain = 0
KWE1 191525Z 34025G30KT 01/M06 A3027 RMK A01 T00141061  RH  057%=      5-min Rain = 0
KWE1 191526Z 34029KT 01/M06 A3027 RMK A01 T00141060  RH  058%=      5-min Rain = 0
KWE1 191527Z 35024G30KT 01/M06 A3027 RMK A01 T00141061  RH  057%=      5-min Rain = 0
KWE1 191528Z 34023KT 01/M06 A3027 RMK A01 T00141059  RH  058%=      5-min Rain = 0
KWE1 191529Z 34024KT 02/M06 A3027 RMK A01 T00161056  RH  059%=      5-min Rain = 0
KWE1 191530Z 34025KT 02/M06 A3028 RMK A01 T00161058  RH  058%=      5-min Rain = 0
KWE1 191531Z 34023KT 02/M06 A3028 RMK A01 T00161058  RH  058%=      5-min Rain = 0
KWE1 191532Z 35020KT 02/M06 A3028 RMK A01 T00161056  RH  059%=      5-min Rain = 0
KWE1 191533Z 34022G27KT 02/M06 A3028 RMK A01 T00171055  RH  059%=      5-min Rain = 0
KWE1 191534Z 34026KT 02/M06 A3028 RMK A01 T00171057  RH  058%=      5-min Rain = 0
KWE1 191535Z 34026KT 02/M06 A3028 RMK A01 T00161059  RH  057%=      5-min Rain = 0
KWE1 191536Z 34024G29KT 02/M06 A3028 RMK A01 T00161060  RH  057%=      5-min Rain = 0
KWE1 191537Z 35023G29KT 02/M06 A3028 RMK A01 T00171056  RH  058%=      5-min Rain = 0
KWE1 191538Z 34026KT 02/M06 A3028 RMK A01 T00171058  RH  058%=      5-min Rain = 0
KWE1 191539Z 34024G30KT 02/M06 A3028 RMK A01 T00171059  RH  057%=      5-min Rain = 0
KWE1 191540Z 34025KT 02/M06 A3028 RMK A01 T00171058  RH  057%=      5-min Rain = 0
KWE1 191541Z 34023KT 02/M06 A3028 RMK A01 T00171059  RH  057%=      5-min Rain = 0
KWE1 191542Z 34027KT 02/M06 A3029 RMK A01 T00171058  RH  057%=      5-min Rain = 0
KWE1 191543Z 34025KT 02/M06 A3028 RMK A01 T00171060  RH  057%=      5-min Rain = 0
KWE1 191544Z 34022G28KT 02/M06 A3029 RMK A01 T00171059  RH  057%=      5-min Rain = 0
KWE1 191545Z 34025KT 02/M06 A3029 RMK A01 T00181056  RH  058%=      5-min Rain = 0
KWE1 191546Z 35024KT 02/M06 A3028 RMK A01 T00191057  RH  057%=      5-min Rain = 0
KWE1 191547Z 33024G30KT 02/M06 A3029 RMK A01 T00191059  RH  057%=      5-min Rain = 0
KWE1 191548Z 34023KT 02/M06 A3029 RMK A01 T00191059  RH  057%=      5-min Rain = 0
KWE1 191549Z 34022G27KT 02/M06 A3029 RMK A01 T00191057  RH  057%=      5-min Rain = 0
KWE1 191550Z 34025G30KT 02/M06 A3029 RMK A01 T00191057  RH  057%=      5-min Rain = 0
KWE1 191551Z 34024G29KT 02/M06 A3029 RMK A01 T00201058  RH  057%=      5-min Rain = 0
KWE1 191552Z 34027G32KT 02/M06 A3029 RMK A01 T00191058  RH  056%=      5-min Rain = 0
KWE1 191553Z 34025G30KT 02/M06 A3029 RMK A01 T00191061  RH  055%=      5-min Rain = 0
KWE1 191554Z 34022KT 02/M06 A3029 RMK A01 T00191060  RH  056%=      5-min Rain = 0
KWE1 191555Z 33024KT 02/M06 A3029 RMK A01 T00201058  RH  057%=      5-min Rain = 0
KWE1 191556Z 34024G29KT 02/M06 A3029 RMK A01 T00201058  RH  056%=      5-min Rain = 0
KWE1 191557Z 34021G27KT 02/M06 A3029 RMK A01 T00201059  RH  056%=      5-min Rain = 0
KWE1 191558Z 34022KT 02/M06 A303 RMK A01 T00211056  RH  057%=      5-min Rain = 0
KWE1 191559Z 34019KT 02/M06 A303 RMK A01 T00221056  RH  056%=      5-min Rain = 0
KWE1 191600Z 34023G30KT 02/M05 A303 RMK A01 T00221054  RH  057%=      5-min Rain = 0
KWE1 191601Z 34025G34KT 02/M06 A303 RMK A01 T00231058  RH  055%=      5-min Rain = 0
KWE1 191602Z 34027KT 02/M06 A303 RMK A01 T00221061  RH  054%=      5-min Rain = 0.01
KWE1 191603Z 34027KT 02/M06 A303 RMK A01 T00211062  RH  054%=      5-min Rain = 0
KWE1 191604Z 34026KT 02/M06 A303 RMK A01 T00201063  RH  054%=      5-min Rain = 0
KWE1 191605Z 34026G32KT 02/M06 A303 RMK A01 T00201062  RH  055%=      5-min Rain = 0
KWE1 191606Z 35027G33KT 02/M06 A303 RMK A01 T00211063  RH  054%=      5-min Rain = 0
KWE1 191607Z 35026KT 02/M07 A303 RMK A01 T00201065  RH  053%=      5-min Rain = 0
KWE1 191608Z 35029KT 02/M07 A303 RMK A01 T00201065  RH  054%=      5-min Rain = 0
KWE1 191609Z 36024G31KT 02/M06 A303 RMK A01 T00201064  RH  054%=      5-min Rain = 0
KWE1 191610Z 35022G27KT 02/M06 A303 RMK A01 T00211060  RH  055%=      5-min Rain = 0
KWE1 191611Z 35027KT 02/M06 A303 RMK A01 T00231059  RH  054%=      5-min Rain = 0
KWE1 191612Z 34024KT 02/M06 A303 RMK A01 T00221061  RH  054%=      5-min Rain = 0
KWE1 191613Z 34023KT 02/M06 A303 RMK A01 T00231059  RH  055%=      5-min Rain = 0
KWE1 191614Z 34024G32KT 02/M06 A303 RMK A01 T00241059  RH  055%=      5-min Rain = 0
KWE1 191615Z 34025G30KT 02/M06 A303 RMK A01 T00241059  RH  054%=      5-min Rain = 0
KWE1 191616Z 34027G32KT 02/M06 A3031 RMK A01 T00231061  RH  053%=      5-min Rain = 0
KWE1 191617Z 34024KT 02/M06 A3031 RMK A01 T00231062  RH  054%=      5-min Rain = 0
KWE1 191618Z 34026KT 02/M06 A3031 RMK A01 T00231061  RH  054%=      5-min Rain = 0
KWE1 191619Z 34026KT 02/M06 A3031 RMK A01 T00231062  RH  053%=      5-min Rain = 0
KWE1 191620Z 35027KT 02/M06 A3031 RMK A01 T00231062  RH  053%=      5-min Rain = 0
KWE1 191621Z 35023G28KT 02/M06 A3031 RMK A01 T00231062  RH  054%=      5-min Rain = 0
KWE1 191622Z 35024G29KT 02/M06 A3031 RMK A01 T00241059  RH  054%=      5-min Rain = 0
KWE1 191623Z 35025KT 02/M06 A3031 RMK A01 T00241060  RH  054%=      5-min Rain = 0
KWE1 191624Z 35025KT 02/M06 A3031 RMK A01 T00241062  RH  053%=      5-min Rain = 0
KWE1 191625Z 35023KT 02/M06 A3031 RMK A01 T00241063  RH  053%=      5-min Rain = 0
KWE1 191626Z 35022KT 02/M06 A3031 RMK A01 T00231062  RH  053%=      5-min Rain = 0
KWE1 191627Z 35020G25KT 02/M06 A3031 RMK A01 T00241060  RH  054%=      5-min Rain = 0
KWE1 191628Z 36019G24KT 03/M06 A3031 RMK A01 T00261056  RH  054%=      5-min Rain = 0
KWE1 191629Z 35021KT 03/M06 A3031 RMK A01 T00281056  RH  054%=      5-min Rain = 0
KWE1 191630Z 35019KT 03/M06 A3031 RMK A01 T00281058  RH  053%=      5-min Rain = 0
KWE1 191631Z 34017G22KT 03/M06 A3031 RMK A01 T00281055  RH  054%=      5-min Rain = 0
KWE1 191632Z 35019KT 03/M05 A3032 RMK A01 T00301052  RH  055%=      5-min Rain = 0
KWE1 191633Z 35019KT 03/M06 A3032 RMK A01 T00301055  RH  054%=      5-min Rain = 0
KWE1 191634Z 34020G25KT 03/M06 A3032 RMK A01 T00301055  RH  054%=      5-min Rain = 0
KWE1 191635Z 34023KT 03/M06 A3032 RMK A01 T00291056  RH  053%=      5-min Rain = 0
KWE1 191636Z 33020KT 03/M06 A3032 RMK A01 T00291058  RH  053%=      5-min Rain = 0
KWE1 191637Z 34023G28KT 03/M06 A3032 RMK A01 T00301056  RH  054%=      5-min Rain = 0
KWE1 191638Z 34023G29KT 03/M06 A3032 RMK A01 T00301058  RH  052%=      5-min Rain = 0
KWE1 191639Z 35027KT 03/M06 A3032 RMK A01 T00291059  RH  052%=      5-min Rain = 0
KWE1 191640Z 34027KT 03/M06 A3032 RMK A01 T00281062  RH  052%=      5-min Rain = 0
KWE1 191641Z 34026KT 03/M06 A3032 RMK A01 T00271063  RH  052%=      5-min Rain = 0
KWE1 191642Z 36023KT 03/M06 A3032 RMK A01 T00271062  RH  052%=      5-min Rain = 0
KWE1 191643Z 35024KT 03/M06 A3032 RMK A01 T00281062  RH  052%=      5-min Rain = 0
KWE1 191644Z 35025KT 03/M06 A3032 RMK A01 T00291061  RH  052%=      5-min Rain = 0
KWE1 191645Z 34024G30KT 03/M06 A3032 RMK A01 T00291061  RH  052%=      5-min Rain = 0
KWE1 191646Z 34022G28KT 03/M06 A3032 RMK A01 T00291061  RH  052%=      5-min Rain = 0
KWE1 191647Z 35021KT 03/M06 A3032 RMK A01 T00301061  RH  052%=      5-min Rain = 0
KWE1 191648Z 35023KT 03/M06 A3032 RMK A01 T00311057  RH  052%=      5-min Rain = 0
KWE1 191649Z 36017G22KT 03/M06 A3032 RMK A01 T00321059  RH  051%=      5-min Rain = 0
KWE1 191650Z 35021KT 03/M06 A3033 RMK A01 T00331056  RH  052%=      5-min Rain = 0
KWE1 191651Z 00021KT 03/M06 A3032 RMK A01 T00331060  RH  051%=      5-min Rain = 0
KWE1 191652Z 35019G26KT 03/M06 A3032 RMK A01 T00331059  RH  051%=      5-min Rain = 0
KWE1 191653Z 35020G26KT 03/M06 A3032 RMK A01 T00341056  RH  052%=      5-min Rain = 0
KWE1 191654Z 35027KT 04/M06 A3032 RMK A01 T00351055  RH  052%=      5-min Rain = 0
KWE1 191655Z 35023KT 03/M06 A3032 RMK A01 T00331062  RH  050%=      5-min Rain = 0
KWE1 191656Z 35023KT 03/M06 A3032 RMK A01 T00321060  RH  051%=      5-min Rain = 0
KWE1 191657Z 35025G30KT 03/M06 A3032 RMK A01 T00331059  RH  051%=      5-min Rain = 0
KWE1 191658Z 35026KT 03/M06 A3032 RMK A01 T00341059  RH  051%=      5-min Rain = 0
KWE1 191659Z 35025KT 03/M06 A3032 RMK A01 T00331059  RH  051%=      5-min Rain = 0
KWE1 191700Z 35024KT 03/M06 A3032 RMK A01 T00341058  RH  051%=      5-min Rain = 0
KWE1 191701Z 35021G26KT 03/M06 A3032 RMK A01 T00341056  RH  052%=      5-min Rain = 0
KWE1 191702Z 35024KT 04/M06 A3032 RMK A01 T00351058  RH  050%=      5-min Rain = 0
KWE1 191703Z 34024G29KT 04/M06 A3032 RMK A01 T00351059  RH  050%=      5-min Rain = 0
KWE1 191704Z 34023KT 04/M06 A3032 RMK A01 T00351057  RH  051%=      5-min Rain = 0
KWE1 191705Z 35019G25KT 03/M06 A3032 RMK A01 T00341057  RH  051%=      5-min Rain = 0
KWE1 191706Z 34022KT 04/M06 A3032 RMK A01 T00361055  RH  051%=      5-min Rain = 0
KWE1 191707Z 34017KT 04/M06 A3032 RMK A01 T00361056  RH  051%=      5-min Rain = 0
KWE1 191708Z 34019G24KT 04/M05 A3032 RMK A01 T00361054  RH  051%=      5-min Rain = 0
KWE1 191709Z 35021KT 04/M06 A3032 RMK A01 T00361056  RH  051%=      5-min Rain = 0
KWE1 191710Z 35021G26KT 04/M05 A3032 RMK A01 T00361054  RH  051%=      5-min Rain = 0
KWE1 191711Z 35021KT 04/M06 A3032 RMK A01 T00371056  RH  051%=      5-min Rain = 0
KWE1 191712Z 35020KT 04/M06 A3032 RMK A01 T00371055  RH  051%=      5-min Rain = 0
KWE1 191713Z 34020KT 04/M06 A3032 RMK A01 T00371055  RH  051%=      5-min Rain = 0
KWE1 191714Z 35018KT 04/M05 A3032 RMK A01 T00371054  RH  051%=      5-min Rain = 0
KWE1 191715Z 36017G22KT 04/M06 A3032 RMK A01 T00371055  RH  051%=      5-min Rain = 0
KWE1 191716Z 34018KT 04/M05 A3032 RMK A01 T00391053  RH  051%=      5-min Rain = 0
KWE1 191717Z 35020G25KT 04/M05 A3032 RMK A01 T00391053  RH  051%=      5-min Rain = 0
KWE1 191718Z 35021G26KT 04/M06 A3032 RMK A01 T00381056  RH  050%=      5-min Rain = 0
KWE1 191719Z 35022G31KT 04/M06 A3032 RMK A01 T00381056  RH  050%=      5-min Rain = 0
KWE1 191720Z 35024KT 04/M06 A3032 RMK A01 T00391057  RH  049%=      5-min Rain = 0
KWE1 191721Z 35021KT 04/M06 A3032 RMK A01 T00391057  RH  050%=      5-min Rain = 0
KWE1 191722Z 34021G26KT 04/M06 A3032 RMK A01 T00401055  RH  050%=      5-min Rain = 0
KWE1 191723Z 34021G27KT 04/M06 A3032 RMK A01 T00401057  RH  049%=      5-min Rain = 0
KWE1 191724Z 34024KT 04/M06 A3032 RMK A01 T00401057  RH  049%=      5-min Rain = 0
KWE1 191725Z 35022KT 04/M06 A3032 RMK A01 T00401059  RH  049%=      5-min Rain = 0
KWE1 191726Z 34022KT 04/M05 A3032 RMK A01 T00421052  RH  050%=      5-min Rain = 0
KWE1 191727Z 34021KT 04/M06 A3032 RMK A01 T00421056  RH  049%=      5-min Rain = 0
KWE1 191728Z 34020G28KT 04/M06 A3032 RMK A01 T00401058  RH  049%=      5-min Rain = 0
KWE1 191729Z 34024KT 04/M06 A3032 RMK A01 T00411057  RH  049%=      5-min Rain = 0
KWE1 191730Z 34026KT 04/M06 A3032 RMK A01 T00401060  RH  048%=      5-min Rain = 0
KWE1 191731Z 34021G26KT 04/M06 A3032 RMK A01 T00401061  RH  048%=      5-min Rain = 0
KWE1 191732Z 34021G26KT 04/M06 A3032 RMK A01 T00401060  RH  048%=      5-min Rain = 0
KWE1 191733Z 34021G30KT 04/M06 A3031 RMK A01 T00411059  RH  048%=      5-min Rain = 0
KWE1 191734Z 34025KT 04/M06 A3032 RMK A01 T00431058  RH  048%=      5-min Rain = 0
KWE1 191735Z 34025KT 04/M06 A3032 RMK A01 T00421062  RH  047%=      5-min Rain = 0
KWE1 191736Z 34025KT 04/M06 A3031 RMK A01 T00411061  RH  047%=      5-min Rain = 0
KWE1 191737Z 34022G27KT 04/M06 A3031 RMK A01 T00411062  RH  047%=      5-min Rain = 0
KWE1 191738Z 35020G25KT 04/M06 A3031 RMK A01 T00411059  RH  048%=      5-min Rain = 0
KWE1 191739Z 34025G30KT 04/M06 A3032 RMK A01 T00441055  RH  049%=      5-min Rain = 0
KWE1 191740Z 34025KT 04/M06 A3031 RMK A01 T00441060  RH  047%=      5-min Rain = 0
KWE1 191741Z 35024KT 04/M06 A3032 RMK A01 T00421063  RH  046%=      5-min Rain = 0
KWE1 191742Z 35024KT 04/M06 A3032 RMK A01 T00421062  RH  047%=      5-min Rain = 0
KWE1 191743Z 36022KT 04/M06 A3032 RMK A01 T00421061  RH  047%=      5-min Rain = 0
KWE1 191744Z 35026G31KT 04/M06 A3032 RMK A01 T00431059  RH  047%=      5-min Rain = 0
KWE1 191745Z 35022G27KT 04/M06 A3032 RMK A01 T00431061  RH  047%=      5-min Rain = 0
KWE1 191746Z 35023KT 04/M06 A3032 RMK A01 T00421062  RH  047%=      5-min Rain = 0
KWE1 191747Z 35021G27KT 04/M06 A3032 RMK A01 T00421060  RH  047%=      5-min Rain = 0
KWE1 191748Z 34021KT 04/M06 A3031 RMK A01 T00431060  RH  047%=      5-min Rain = 0
KWE1 191749Z 33023KT 04/M06 A3031 RMK A01 T00431060  RH  047%=      5-min Rain = 0
KWE1 191750Z 33023KT 04/M06 A3031 RMK A01 T00431060  RH  047%=      5-min Rain = 0
KWE1 191751Z 34020G25KT 04/M06 A3031 RMK A01 T00431060  RH  047%=      5-min Rain = 0
KWE1 191752Z 35023KT 04/M06 A3032 RMK A01 T00431062  RH  047%=      5-min Rain = 0
KWE1 191753Z 35021KT 04/M06 A3032 RMK A01 T00431060  RH  047%=      5-min Rain = 0
KWE1 191754Z 36024KT 05/M06 A3032 RMK A01 T00451058  RH  047%=      5-min Rain = 0
KWE1 191755Z 34019G26KT 05/M06 A3032 RMK A01 T00461058  RH  047%=      5-min Rain = 0
KWE1 191756Z 35020KT 05/M06 A3031 RMK A01 T00461056  RH  047%=      5-min Rain = 0
KWE1 191757Z 36020G26KT 05/M06 A3032 RMK A01 T00471058  RH  047%=      5-min Rain = 0
KWE1 191758Z 35020G25KT 05/M06 A3032 RMK A01 T00491055  RH  047%=      5-min Rain = 0
KWE1 191759Z 36023KT 05/M06 A3031 RMK A01 T00501056  RH  046%=      5-min Rain = 0
KWE1 191800Z 35023KT 05/M06 A3032 RMK A01 T00501057  RH  046%=      5-min Rain = 0
KWE1 191801Z 35023KT 05/M06 A3032 RMK A01 T00481062  RH  045%=      5-min Rain = 0
KWE1 191802Z 34021KT 05/M06 A3031 RMK A01 T00461062  RH  046%=      5-min Rain = 0
KWE1 191803Z 34024G30KT 05/M06 A3032 RMK A01 T00461060  RH  046%=      5-min Rain = 0
KWE1 191804Z 34023KT 05/M06 A3032 RMK A01 T00461060  RH  046%=      5-min Rain = 0
KWE1 191805Z 35023KT 05/M06 A3031 RMK A01 T00461060  RH  046%=      5-min Rain = 0
KWE1 191806Z 35022G27KT 05/M06 A3031 RMK A01 T00461058  RH  047%=      5-min Rain = 0
KWE1 191807Z 34024KT 05/M06 A3031 RMK A01 T00471058  RH  047%=      5-min Rain = 0
KWE1 191808Z 35018KT 05/M06 A3031 RMK A01 T00471060  RH  046%=      5-min Rain = 0
KWE1 191809Z 34019KT 05/M06 A3031 RMK A01 T00471058  RH  046%=      5-min Rain = 0
KWE1 191810Z 35020KT 05/M06 A3031 RMK A01 T00481057  RH  047%=      5-min Rain = 0
KWE1 191811Z 35018KT 05/M06 A3031 RMK A01 T00481059  RH  046%=      5-min Rain = 0
KWE1 191812Z 34020KT 05/M06 A3031 RMK A01 T00481056  RH  047%=      5-min Rain = 0
KWE1 191813Z 33018G25KT 05/M06 A3031 RMK A01 T00491057  RH  046%=      5-min Rain = 0
KWE1 191814Z 34017G22KT 05/M05 A3031 RMK A01 T00511052  RH  047%=      5-min Rain = 0
KWE1 191815Z 35023G28KT 05/M06 A3031 RMK A01 T00511055  RH  046%=      5-min Rain = 0
KWE1 191816Z 35021KT 05/M06 A3031 RMK A01 T00501057  RH  046%=      5-min Rain = 0
KWE1 191817Z 34022KT 05/M06 A3031 RMK A01 T00501058  RH  046%=      5-min Rain = 0
KWE1 191818Z 35021KT 05/M06 A3031 RMK A01 T00481061  RH  045%=      5-min Rain = 0
KWE1 191819Z 35020KT 05/M06 A3031 RMK A01 T00471061  RH  045%=      5-min Rain = 0
KWE1 191820Z 34016KT 05/M06 A3031 RMK A01 T00481059  RH  046%=      5-min Rain = 0
KWE1 191821Z 34015G20KT 05/M05 A3031 RMK A01 T00501054  RH  047%=      5-min Rain = 0
KWE1 191822Z 32018G24KT 05/M05 A3031 RMK A01 T00531052  RH  047%=      5-min Rain = 0
KWE1 191823Z 34015G21KT 05/M06 A3031 RMK A01 T00531056  RH  045%=      5-min Rain = 0
KWE1 191824Z 34020G26KT 05/M05 A3031 RMK A01 T00531053  RH  046%=      5-min Rain = 0
KWE1 191825Z 34018KT 05/M06 A3031 RMK A01 T00521058  RH  045%=      5-min Rain = 0
KWE1 191826Z 33019G24KT 05/M06 A3031 RMK A01 T00511057  RH  046%=      5-min Rain = 0
KWE1 191827Z 33021KT 05/M06 A3031 RMK A01 T00501059  RH  045%=      5-min Rain = 0
KWE1 191828Z 33016KT 05/M06 A3031 RMK A01 T00501060  RH  045%=      5-min Rain = 0
KWE1 191829Z 34020G27KT 05/M06 A3031 RMK A01 T00511056  RH  046%=      5-min Rain = 0
KWE1 191830Z 34022G31KT 05/M06 A303 RMK A01 T00531058  RH  045%=      5-min Rain = 0
KWE1 191831Z 34029KT 05/M06 A303 RMK A01 T00521061  RH  044%=      5-min Rain = 0
KWE1 191832Z 35026KT 05/M06 A303 RMK A01 T00501063  RH  044%=      5-min Rain = 0
KWE1 191833Z 35026KT 05/M06 A303 RMK A01 T00501063  RH  044%=      5-min Rain = 0
KWE1 191834Z 35023KT 05/M06 A303 RMK A01 T00491063  RH  044%=      5-min Rain = 0
KWE1 191835Z 35024KT 05/M06 A303 RMK A01 T00491062  RH  044%=      5-min Rain = 0
KWE1 191836Z 33022KT 05/M06 A303 RMK A01 T00511062  RH  044%=      5-min Rain = 0
KWE1 191837Z 34025KT 05/M06 A303 RMK A01 T00521060  RH  044%=      5-min Rain = 0
KWE1 191838Z 34024KT 05/M06 A303 RMK A01 T00521062  RH  044%=      5-min Rain = 0
KWE1 191839Z 34023G31KT 05/M06 A303 RMK A01 T00521062  RH  044%=      5-min Rain = 0
KWE1 191840Z 34023G28KT 05/M06 A303 RMK A01 T00521062  RH  044%=      5-min Rain = 0
KWE1 191841Z 35024KT 05/M06 A303 RMK A01 T00521063  RH  043%=      5-min Rain = 0
KWE1 191842Z 34025KT 05/M06 A303 RMK A01 T00521063  RH  043%=      5-min Rain = 0
KWE1 191843Z 34024G30KT 05/M06 A303 RMK A01 T00521064  RH  043%=      5-min Rain = 0
KWE1 191844Z 34024KT 05/M06 A303 RMK A01 T00511064  RH  043%=      5-min Rain = 0
KWE1 191845Z 34021KT 05/M06 A303 RMK A01 T00511063  RH  043%=      5-min Rain = 0
KWE1 191846Z 36022G27KT 05/M06 A303 RMK A01 T00531060  RH  044%=      5-min Rain = 0
KWE1 191847Z 35025KT 05/M06 A303 RMK A01 T00541060  RH  044%=      5-min Rain = 0
KWE1 191848Z 35024KT 05/M06 A303 RMK A01 T00541061  RH  043%=      5-min Rain = 0
KWE1 191849Z 35018KT 05/M06 A3029 RMK A01 T00541060  RH  044%=      5-min Rain = 0
KWE1 191850Z 35019KT 06/M06 A3029 RMK A01 T00551059  RH  044%=      5-min Rain = 0
KWE1 191851Z 35018G23KT 06/M06 A3029 RMK A01 T00561057  RH  044%=      5-min Rain = 0
KWE1 191852Z 36018KT 06/M05 A3029 RMK A01 T00581053  RH  045%=      5-min Rain = 0
KWE1 191853Z 35023KT 06/M05 A3029 RMK A01 T00601053  RH  044%=      5-min Rain = 0
KWE1 191854Z 35021G27KT 06/M06 A3029 RMK A01 T00591058  RH  043%=      5-min Rain = 0
KWE1 191855Z 35022KT 06/M06 A3029 RMK A01 T00561062  RH  042%=      5-min Rain = 0
KWE1 191856Z 35023KT 06/M06 A3029 RMK A01 T00551060  RH  043%=      5-min Rain = 0
KWE1 191857Z 34023KT 06/M06 A3029 RMK A01 T00551060  RH  043%=      5-min Rain = 0
KWE1 191858Z 33021G27KT 06/M06 A3029 RMK A01 T00551060  RH  043%=      5-min Rain = 0
KWE1 191859Z 33020G25KT 05/M06 A3029 RMK A01 T00541058  RH  044%=      5-min Rain = 0
KWE1 191900Z 34020KT 06/M06 A3028 RMK A01 T00551056  RH  044%=      5-min Rain = 0
KWE1 191901Z 34019KT 06/M06 A3028 RMK A01 T00551060  RH  043%=      5-min Rain = 0
KWE1 191902Z 34014KT 06/M06 A3028 RMK A01 T00551059  RH  044%=      5-min Rain = 0
KWE1 191903Z 35018KT 06/M06 A3028 RMK A01 T00571055  RH  044%=      5-min Rain = 0
KWE1 191904Z 00021KT 06/M05 A3028 RMK A01 T00591053  RH  044%=      5-min Rain = 0
KWE1 191905Z 34021KT 06/M06 A3028 RMK A01 T00601057  RH  043%=      5-min Rain = 0
KWE1 191906Z 34017KT 06/M06 A3028 RMK A01 T00591057  RH  043%=      5-min Rain = 0
KWE1 191907Z 33019KT 06/M06 A3028 RMK A01 T00591056  RH  043%=      5-min Rain = 0
KWE1 191908Z 34018KT 06/M05 A3028 RMK A01 T00601054  RH  044%=      5-min Rain = 0
KWE1 191909Z 35018G26KT 06/M05 A3028 RMK A01 T00621049  RH  045%=      5-min Rain = 0
KWE1 191910Z 34023KT 06/M05 A3028 RMK A01 T00621054  RH  043%=      5-min Rain = 0
KWE1 191911Z 34018G25KT 06/M06 A3028 RMK A01 T00591061  RH  042%=      5-min Rain = 0
KWE1 191912Z 33017G24KT 06/M06 A3027 RMK A01 T00591056  RH  043%=      5-min Rain = 0
KWE1 191913Z 35023KT 06/M05 A3028 RMK A01 T00611054  RH  044%=      5-min Rain = 0
KWE1 191914Z 36022KT 06/M06 A3028 RMK A01 T00601058  RH  042%=      5-min Rain = 0
KWE1 191915Z 36022KT 06/M06 A3028 RMK A01 T00601059  RH  042%=      5-min Rain = 0
KWE1 191916Z 35019G26KT 06/M06 A3028 RMK A01 T00591057  RH  043%=      5-min Rain = 0
KWE1 191917Z 35025KT 06/M06 A3028 RMK A01 T00611056  RH  043%=      5-min Rain = 0
KWE1 191918Z 34021KT 06/M06 A3028 RMK A01 T00601057  RH  043%=      5-min Rain = 0
KWE1 191919Z 34022KT 06/M06 A3027 RMK A01 T00601058  RH  043%=      5-min Rain = 0
KWE1 191920Z 34017KT 06/M06 A3027 RMK A01 T00581060  RH  042%=      5-min Rain = 0
KWE1 191921Z 33019G25KT 06/M06 A3027 RMK A01 T00591058  RH  043%=      5-min Rain = 0
KWE1 191922Z 34021G28KT 06/M06 A3027 RMK A01 T00611055  RH  043%=      5-min Rain = 0
KWE1 191923Z 35026KT 06/M06 A3028 RMK A01 T00611057  RH  042%=      5-min Rain = 0
KWE1 191924Z 33023G28KT 06/M06 A3027 RMK A01 T00601060  RH  042%=      5-min Rain = 0
KWE1 191925Z 33021KT 06/M06 A3027 RMK A01 T00591059  RH  042%=      5-min Rain = 0
KWE1 191926Z 34021G27KT 06/M06 A3027 RMK A01 T00591058  RH  043%=      5-min Rain = 0
KWE1 191927Z 34024KT 06/M06 A3027 RMK A01 T00591059  RH  042%=      5-min Rain = 0
KWE1 191928Z 34020KT 06/M06 A3027 RMK A01 T00591060  RH  042%=      5-min Rain = 0
KWE1 191929Z 34020KT 06/M06 A3027 RMK A01 T00601058  RH  042%=      5-min Rain = 0
KWE1 191930Z 34024KT 06/M06 A3027 RMK A01 T00611059  RH  042%=      5-min Rain = 0
KWE1 191931Z 35021KT 06/M06 A3027 RMK A01 T00611060  RH  042%=      5-min Rain = 0
KWE1 191932Z 34024G32KT 06/M06 A3027 RMK A01 T00631056  RH  042%=      5-min Rain = 0
KWE1 191933Z 34027KT 06/M06 A3027 RMK A01 T00641057  RH  042%=      5-min Rain = 0
KWE1 191934Z 34024G29KT 06/M06 A3027 RMK A01 T00631059  RH  041%=      5-min Rain = 0
KWE1 191935Z 35024KT 06/M06 A3027 RMK A01 T00621060  RH  041%=      5-min Rain = 0
KWE1 191936Z 35023KT 06/M06 A3028 RMK A01 T00621061  RH  041%=      5-min Rain = 0
KWE1 191937Z 35024KT 06/M06 A3027 RMK A01 T00611062  RH  041%=      5-min Rain = 0
KWE1 191938Z 34022KT 06/M06 A3028 RMK A01 T00601061  RH  041%=      5-min Rain = 0
KWE1 191939Z 34018KT 06/M06 A3027 RMK A01 T00601061  RH  041%=      5-min Rain = 0
KWE1 191940Z 34019G24KT 06/M06 A3027 RMK A01 T00611059  RH  042%=      5-min Rain = 0
KWE1 191941Z 35023KT 06/M06 A3027 RMK A01 T00641056  RH  042%=      5-min Rain = 0
KWE1 191942Z 34016G21KT 07/M06 A3027 RMK A01 T00651055  RH  042%=      5-min Rain = 0
KWE1 191943Z 34021G26KT 07/M05 A3027 RMK A01 T00671054  RH  042%=      5-min Rain = 0
KWE1 191944Z 35025KT 07/M06 A3027 RMK A01 T00661058  RH  041%=      5-min Rain = 0
KWE1 191945Z 35023G28KT 07/M06 A3027 RMK A01 T00651058  RH  041%=      5-min Rain = 0
KWE1 191946Z 34024G29KT 07/M06 A3027 RMK A01 T00651058  RH  041%=      5-min Rain = 0
KWE1 191947Z 34022KT 06/M06 A3027 RMK A01 T00641060  RH  041%=      5-min Rain = 0
KWE1 191948Z 34020G25KT 06/M06 A3027 RMK A01 T00641059  RH  041%=      5-min Rain = 0
KWE1 191949Z 33018G25KT 06/M06 A3027 RMK A01 T00641058  RH  041%=      5-min Rain = 0
KWE1 191950Z 34023KT 07/M06 A3027 RMK A01 T00651056  RH  041%=      5-min Rain = 0
KWE1 191951Z 35024G29KT 07/M06 A3027 RMK A01 T00651060  RH  040%=      5-min Rain = 0
KWE1 191952Z 35019KT 06/M06 A3027 RMK A01 T00631062  RH  040%=      5-min Rain = 0
KWE1 191953Z 34018KT 06/M06 A3027 RMK A01 T00631061  RH  041%=      5-min Rain = 0
KWE1 191954Z 33019G24KT 07/M06 A3027 RMK A01 T00651057  RH  042%=      5-min Rain = 0
KWE1 191955Z 33019KT 07/M06 A3027 RMK A01 T00661055  RH  042%=      5-min Rain = 0
KWE1 191956Z 33019G25KT 07/M05 A3027 RMK A01 T00671053  RH  042%=      5-min Rain = 0
KWE1 191957Z 34020KT 07/M06 A3027 RMK A01 T00681056  RH  041%=      5-min Rain = 0
KWE1 191958Z 35018G25KT 07/M06 A3027 RMK A01 T00661059  RH  040%=      5-min Rain = 0
KWE1 191959Z 36023G29KT 07/M06 A3027 RMK A01 T00681056  RH  041%=      5-min Rain = 0
KWE1 192000Z 35022G27KT 07/M06 A3027 RMK A01 T00681059  RH  040%=      5-min Rain = 0
KWE1 192001Z 35023G33KT 07/M06 A3027 RMK A01 T00681058  RH  040%=      5-min Rain = 0
KWE1 192002Z 35026G31KT 07/M06 A3027 RMK A01 T00681063  RH  039%=      5-min Rain = 0
KWE1 192003Z 35024G29KT 07/M07 A3026 RMK A01 T00671067  RH  038%=      5-min Rain = 0
KWE1 192004Z 35024G30KT 07/M07 A3026 RMK A01 T00671067  RH  038%=      5-min Rain = 0
KWE1 192005Z 35022KT 07/M07 A3026 RMK A01 T00661069  RH  038%=      5-min Rain = 0
KWE1 192006Z 00022G29KT 07/M07 A3027 RMK A01 T00661065  RH  039%=      5-min Rain = 0
KWE1 192007Z 00025G30KT 07/M07 A3027 RMK A01 T00681065  RH  038%=      5-min Rain = 0
KWE1 192008Z 00024KT 07/M07 A3027 RMK A01 T00671067  RH  038%=      5-min Rain = 0
KWE1 192009Z 00026G33KT 07/M07 A3027 RMK A01 T00671066  RH  038%=      5-min Rain = 0
KWE1 192010Z 35022G30KT 07/M07 A3027 RMK A01 T00671066  RH  038%=      5-min Rain = 0
KWE1 192011Z 35024G30KT 07/M06 A3027 RMK A01 T00671063  RH  039%=      5-min Rain = 0
KWE1 192012Z 35022G27KT 07/M07 A3027 RMK A01 T00671065  RH  038%=      5-min Rain = 0
KWE1 192013Z 34018G24KT 07/M06 A3027 RMK A01 T00661063  RH  039%=      5-min Rain = 0
KWE1 192014Z 35021G27KT 07/M06 A3027 RMK A01 T00671061  RH  039%=      5-min Rain = 0
KWE1 192015Z 00021G27KT 07/M06 A3027 RMK A01 T00681062  RH  039%=      5-min Rain = 0
KWE1 192016Z 00023G28KT 07/M06 A3027 RMK A01 T00681064  RH  038%=      5-min Rain = 0
KWE1 192017Z 35018KT 07/M06 A3027 RMK A01 T00681064  RH  038%=      5-min Rain = 0
KWE1 192018Z 35018KT 07/M06 A3027 RMK A01 T00691060  RH  039%=      5-min Rain = 0
KWE1 192019Z 00021G27KT 07/M06 A3027 RMK A01 T00711056  RH  040%=      5-min Rain = 0
KWE1 192020Z 35022KT 07/M06 A3027 RMK A01 T00711060  RH  039%=      5-min Rain = 0
KWE1 192021Z 35021KT 07/M06 A3026 RMK A01 T00711059  RH  039%=      5-min Rain = 0
KWE1 192022Z 00023G28KT 07/M06 A3027 RMK A01 T00681064  RH  038%=      5-min Rain = 0
KWE1 192023Z 00023KT 07/M07 A3027 RMK A01 T00671065  RH  038%=      5-min Rain = 0
KWE1 192024Z 35022KT 07/M06 A3027 RMK A01 T00671064  RH  039%=      5-min Rain = 0
KWE1 192025Z 00021KT 07/M07 A3027 RMK A01 T00671066  RH  038%=      5-min Rain = 0
KWE1 192026Z 00017G23KT 07/M06 A3027 RMK A01 T00671064  RH  039%=      5-min Rain = 0
KWE1 192027Z 36022G27KT 07/M06 A3027 RMK A01 T00681062  RH  039%=      5-min Rain = 0
KWE1 192028Z 35021KT 07/M07 A3027 RMK A01 T00671066  RH  038%=      5-min Rain = 0
KWE1 192029Z 35022KT 07/M06 A3027 RMK A01 T00671062  RH  039%=      5-min Rain = 0
KWE1 192030Z 34021KT 07/M06 A3026 RMK A01 T00691059  RH  040%=      5-min Rain = 0
KWE1 192031Z 35022KT 07/M06 A3027 RMK A01 T00701057  RH  040%=      5-min Rain = 0
KWE1 192032Z 34020KT 07/M06 A3026 RMK A01 T00701057  RH  040%=      5-min Rain = 0
KWE1 192033Z 34018KT 07/M06 A3027 RMK A01 T00691059  RH  040%=      5-min Rain = 0
KWE1 192034Z 35017G22KT 07/M06 A3027 RMK A01 T00691057  RH  040%=      5-min Rain = 0
KWE1 192035Z 00022KT 07/M06 A3026 RMK A01 T00711055  RH  040%=      5-min Rain = 0
KWE1 192036Z 35023G28KT 07/M06 A3026 RMK A01 T00711060  RH  039%=      5-min Rain = 0
KWE1 192037Z 35020G25KT 07/M06 A3026 RMK A01 T00701062  RH  039%=      5-min Rain = 0
KWE1 192038Z 36024KT 07/M06 A3026 RMK A01 T00701060  RH  039%=      5-min Rain = 0
KWE1 192039Z 36022KT 07/M06 A3027 RMK A01 T00691063  RH  039%=      5-min Rain = 0
KWE1 192040Z 36020KT 07/M06 A3026 RMK A01 T00681063  RH  038%=      5-min Rain = 0
KWE1 192041Z 35017G22KT 07/M06 A3026 RMK A01 T00691061  RH  039%=      5-min Rain = 0
KWE1 192042Z 35020G25KT 07/M06 A3026 RMK A01 T00691060  RH  039%=      5-min Rain = 0
KWE1 192043Z 35020KT 07/M06 A3026 RMK A01 T00701061  RH  039%=      5-min Rain = 0
KWE1 192044Z 35017KT 07/M06 A3026 RMK A01 T00701059  RH  039%=      5-min Rain = 0
KWE1 192045Z 36020KT 07/M06 A3026 RMK A01 T00721058  RH  039%=      5-min Rain = 0
KWE1 192046Z 35020KT 07/M06 A3026 RMK A01 T00711061  RH  038%=      5-min Rain = 0
KWE1 192047Z 34016KT 07/M06 A3026 RMK A01 T00701063  RH  038%=      5-min Rain = 0
KWE1 192048Z 34018KT 07/M06 A3026 RMK A01 T00701060  RH  039%=      5-min Rain = 0
KWE1 192049Z 35016KT 07/M06 A3026 RMK A01 T00691061  RH  039%=      5-min Rain = 0
KWE1 192050Z 35013KT 07/M06 A3026 RMK A01 T00701057  RH  040%=      5-min Rain = 0
KWE1 192051Z 35016G22KT 07/M05 A3026 RMK A01 T00741052  RH  041%=      5-min Rain = 0
KWE1 192052Z 35014G19KT 07/M06 A3026 RMK A01 T00741056  RH  039%=      5-min Rain = 0
KWE1 192053Z 33015KT 07/M05 A3026 RMK A01 T00741053  RH  040%=      5-min Rain = 0
KWE1 192054Z 35019KT 08/M05 A3026 RMK A01 T00751051  RH  040%=      5-min Rain = 0
KWE1 192055Z 35018KT 08/M05 A3026 RMK A01 T00751053  RH  040%=      5-min Rain = 0
KWE1 192056Z 35019G25KT 07/M06 A3026 RMK A01 T00731055  RH  040%=      5-min Rain = 0
KWE1 192057Z 00019G24KT 07/M06 A3026 RMK A01 T00721057  RH  039%=      5-min Rain = 0
KWE1 192058Z 36021KT 07/M06 A3026 RMK A01 T00721057  RH  040%=      5-min Rain = 0
KWE1 192059Z 36020KT 07/M06 A3026 RMK A01 T00711057  RH  039%=      5-min Rain = 0
KWE1 192100Z 00016KT 07/M06 A3027 RMK A01 T00711059  RH  039%=      5-min Rain = 0
KWE1 192101Z 35017KT 07/M06 A3027 RMK A01 T00711059  RH  039%=      5-min Rain = 0
KWE1 192102Z 35018KT 07/M06 A3026 RMK A01 T00711059  RH  039%=      5-min Rain = 0
KWE1 192103Z 35020KT 07/M06 A3026 RMK A01 T00711057  RH  040%=      5-min Rain = 0
KWE1 192104Z 35020KT 07/M06 A3026 RMK A01 T00721055  RH  040%=      5-min Rain = 0
KWE1 192105Z 35018KT 07/M06 A3027 RMK A01 T00711058  RH  039%=      5-min Rain = 0
KWE1 192106Z 35018KT 07/M06 A3026 RMK A01 T00711058  RH  040%=      5-min Rain = 0
KWE1 192107Z 34016KT 07/M06 A3026 RMK A01 T00711059  RH  039%=      5-min Rain = 0
KWE1 192108Z 34014KT 07/M06 A3027 RMK A01 T00701060  RH  039%=      5-min Rain = 0
KWE1 192109Z 34015G21KT 07/M06 A3027 RMK A01 T00701061  RH  039%=      5-min Rain = 0
KWE1 192110Z 00021KT 07/M06 A3026 RMK A01 T00701059  RH  039%=      5-min Rain = 0
KWE1 192111Z 36017KT 07/M06 A3027 RMK A01 T00711059  RH  039%=      5-min Rain = 0
KWE1 192112Z 36019KT 07/M06 A3027 RMK A01 T00721058  RH  039%=      5-min Rain = 0
KWE1 192113Z 00017KT 07/M06 A3026 RMK A01 T00721061  RH  038%=      5-min Rain = 0
KWE1 192114Z 35017G22KT 07/M06 A3027 RMK A01 T00721061  RH  038%=      5-min Rain = 0
KWE1 192115Z 35016KT 07/M06 A3027 RMK A01 T00721057  RH  040%=      5-min Rain = 0
KWE1 192116Z 00014KT 07/M06 A3027 RMK A01 T00731055  RH  040%=      5-min Rain = 0
KWE1 192117Z 36015G20KT 07/M06 A3027 RMK A01 T00731057  RH  039%=      5-min Rain = 0
KWE1 192118Z 35017KT 07/M06 A3027 RMK A01 T00741055  RH  039%=      5-min Rain = 0
KWE1 192119Z 36015KT 07/M06 A3027 RMK A01 T00741058  RH  039%=      5-min Rain = 0
KWE1 192120Z 35012G18KT 07/M06 A3027 RMK A01 T00741055  RH  039%=      5-min Rain = 0
KWE1 192121Z 34014KT 08/M05 A3027 RMK A01 T00751051  RH  040%=      5-min Rain = 0
KWE1 192122Z 34015KT 08/M05 A3027 RMK A01 T00761051  RH  040%=      5-min Rain = 0
KWE1 192123Z 35017KT 08/M05 A3027 RMK A01 T00771051  RH  040%=      5-min Rain = 0
KWE1 192124Z 35017KT 08/M06 A3027 RMK A01 T00751057  RH  039%=      5-min Rain = 0
KWE1 192125Z 35019KT 07/M06 A3027 RMK A01 T00731056  RH  039%=      5-min Rain = 0
KWE1 192126Z 36020KT 07/M06 A3027 RMK A01 T00731057  RH  039%=      5-min Rain = 0
KWE1 192127Z 35019KT 07/M06 A3027 RMK A01 T00731056  RH  040%=      5-min Rain = 0
KWE1 192128Z 36015KT 07/M06 A3027 RMK A01 T00721057  RH  039%=      5-min Rain = 0
KWE1 192129Z 34013G18KT 07/M05 A3027 RMK A01 T00731054  RH  040%=      5-min Rain = 0
KWE1 192130Z 36017KT 07/M05 A3027 RMK A01 T00741054  RH  040%=      5-min Rain = 0
KWE1 192131Z 00017KT 07/M06 A3027 RMK A01 T00741057  RH  039%=      5-min Rain = 0
KWE1 192132Z 36019KT 07/M06 A3027 RMK A01 T00741057  RH  039%=      5-min Rain = 0
KWE1 192133Z 35018KT 07/M06 A3027 RMK A01 T00741055  RH  039%=      5-min Rain = 0
KWE1 192134Z 35019KT 07/M06 A3027 RMK A01 T00741055  RH  039%=      5-min Rain = 0
KWE1 192135Z 35018KT 07/M05 A3027 RMK A01 T00741052  RH  040%=      5-min Rain = 0
KWE1 192136Z 35016KT 07/M05 A3027 RMK A01 T00741053  RH  040%=      5-min Rain = 0
KWE1 192137Z 35015G20KT 07/M05 A3027 RMK A01 T00741053  RH  040%=      5-min Rain = 0
KWE1 192138Z 35016KT 07/M05 A3027 RMK A01 T00741053  RH  040%=      5-min Rain = 0
KWE1 192139Z 34019KT 08/M05 A3027 RMK A01 T00751049  RH  041%=      5-min Rain = 0
KWE1 192140Z 33017KT 08/M05 A3027 RMK A01 T00761052  RH  040%=      5-min Rain = 0
KWE1 192141Z 34017G22KT 08/M05 A3027 RMK A01 T00751053  RH  040%=      5-min Rain = 0
KWE1 192142Z 35021KT 08/M05 A3027 RMK A01 T00751053  RH  040%=      5-min Rain = 0
KWE1 192143Z 36021KT 07/M05 A3027 RMK A01 T00741052  RH  040%=      5-min Rain = 0
KWE1 192144Z 34017KT 07/M06 A3027 RMK A01 T00731055  RH  040%=      5-min Rain = 0
KWE1 192145Z 35016KT 07/M05 A3027 RMK A01 T00731053  RH  041%=      5-min Rain = 0
KWE1 192146Z 35016KT 07/M05 A3027 RMK A01 T00741050  RH  041%=      5-min Rain = 0
KWE1 192147Z 34016KT 08/M05 A3027 RMK A01 T00761046  RH  042%=      5-min Rain = 0
KWE1 192148Z 35018KT 08/M05 A3027 RMK A01 T00761049  RH  041%=      5-min Rain = 0
KWE1 192149Z 34016KT 08/M05 A3027 RMK A01 T00751053  RH  040%=      5-min Rain = 0
KWE1 192150Z 36014KT 07/M05 A3027 RMK A01 T00741054  RH  040%=      5-min Rain = 0
KWE1 192151Z 35017KT 08/M05 A3027 RMK A01 T00751051  RH  041%=      5-min Rain = 0
KWE1 192152Z 36019G24KT 08/M05 A3028 RMK A01 T00751053  RH  040%=      5-min Rain = 0
KWE1 192153Z 35017KT 08/M05 A3028 RMK A01 T00751054  RH  040%=      5-min Rain = 0
KWE1 192154Z 35018KT 08/M05 A3028 RMK A01 T00751054  RH  040%=      5-min Rain = 0
KWE1 192155Z 35018KT 08/M05 A3028 RMK A01 T00751052  RH  040%=      5-min Rain = 0
KWE1 192156Z 35017KT 07/M06 A3028 RMK A01 T00741056  RH  039%=      5-min Rain = 0
KWE1 192157Z 35021KT 07/M06 A3028 RMK A01 T00731057  RH  039%=      5-min Rain = 0
KWE1 192158Z 35019KT 07/M06 A3028 RMK A01 T00731057  RH  039%=      5-min Rain = 0
KWE1 192159Z 35019KT 07/M05 A3028 RMK A01 T00731054  RH  040%=      5-min Rain = 0
KWE1 192200Z 35022KT 07/M05 A3028 RMK A01 T00741053  RH  040%=      5-min Rain = 0
KWE1 192201Z 36019G24KT 07/M06 A3027 RMK A01 T00741056  RH  039%=      5-min Rain = 0
KWE1 192202Z 35019KT 07/M06 A3027 RMK A01 T00741055  RH  039%=      5-min Rain = 0
KWE1 192203Z 35020KT 07/M06 A3028 RMK A01 T00741055  RH  040%=      5-min Rain = 0
KWE1 192204Z 36020KT 07/M06 A3028 RMK A01 T00741056  RH  039%=      5-min Rain = 0
KWE1 192205Z 36019KT 07/M06 A3028 RMK A01 T00741057  RH  039%=      5-min Rain = 0
KWE1 192206Z 36018KT 07/M06 A3028 RMK A01 T00741057  RH  039%=      5-min Rain = 0
KWE1 192207Z 36017KT 07/M06 A3028 RMK A01 T00741058  RH  039%=      5-min Rain = 0
KWE1 192208Z 36017KT 07/M06 A3028 RMK A01 T00741059  RH  038%=      5-min Rain = 0
KWE1 192209Z 36018G23KT 07/M06 A3028 RMK A01 T00741058  RH  039%=      5-min Rain = 0
KWE1 192210Z 36019KT 07/M06 A3028 RMK A01 T00741059  RH  038%=      5-min Rain = 0
KWE1 192211Z 36019KT 07/M06 A3028 RMK A01 T00741059  RH  038%=      5-min Rain = 0
KWE1 192212Z 00019KT 07/M06 A3028 RMK A01 T00741058  RH  039%=      5-min Rain = 0
KWE1 192213Z 36020KT 07/M06 A3028 RMK A01 T00741059  RH  038%=      5-min Rain = 0
KWE1 192214Z 35019KT 07/M06 A3028 RMK A01 T00741059  RH  038%=      5-min Rain = 0
KWE1 192215Z 36020KT 07/M06 A3028 RMK A01 T00741059  RH  038%=      5-min Rain = 0
KWE1 192216Z 35016KT 07/M06 A3028 RMK A01 T00741059  RH  038%=      5-min Rain = 0
KWE1 192217Z 35016KT 08/M06 A3028 RMK A01 T00751057  RH  039%=      5-min Rain = 0
KWE1 192218Z 35014KT 08/M06 A3028 RMK A01 T00751055  RH  039%=      5-min Rain = 0
KWE1 192219Z 36018KT 08/M06 A3028 RMK A01 T00751055  RH  039%=      5-min Rain = 0
KWE1 192220Z 36018KT 08/M06 A3028 RMK A01 T00751057  RH  038%=      5-min Rain = 0
KWE1 192221Z 35018KT 08/M06 A3028 RMK A01 T00751060  RH  038%=      5-min Rain = 0
KWE1 192222Z 35016KT 07/M06 A3028 RMK A01 T00731062  RH  038%=      5-min Rain = 0
KWE1 192223Z 00016KT 07/M06 A3028 RMK A01 T00731061  RH  038%=      5-min Rain = 0
KWE1 192224Z 36018KT 07/M06 A3028 RMK A01 T00731061  RH  038%=      5-min Rain = 0
KWE1 192225Z 36016G21KT 07/M06 A3028 RMK A01 T00731059  RH  038%=      5-min Rain = 0
KWE1 192226Z 35017KT 07/M06 A3028 RMK A01 T00741060  RH  038%=      5-min Rain = 0
KWE1 192227Z 36018KT 07/M06 A3028 RMK A01 T00731061  RH  038%=      5-min Rain = 0
KWE1 192228Z 36017KT 07/M06 A3028 RMK A01 T00731062  RH  038%=      5-min Rain = 0
KWE1 192229Z 36015KT 07/M06 A3028 RMK A01 T00731062  RH  038%=      5-min Rain = 0
KWE1 192230Z 35016G22KT 07/M06 A3028 RMK A01 T00731061  RH  038%=      5-min Rain = 0
KWE1 192231Z 35018KT 07/M06 A3028 RMK A01 T00731061  RH  038%=      5-min Rain = 0
KWE1 192232Z 00017KT 07/M06 A3028 RMK A01 T00731063  RH  037%=      5-min Rain = 0
KWE1 192233Z 36017KT 07/M07 A3028 RMK A01 T00721066  RH  037%=      5-min Rain = 0
KWE1 192234Z 00015KT 07/M07 A3028 RMK A01 T00721065  RH  037%=      5-min Rain = 0
KWE1 192235Z 00016KT 07/M07 A3028 RMK A01 T00721066  RH  037%=      5-min Rain = 0
KWE1 192236Z 00015KT 07/M07 A3028 RMK A01 T00721067  RH  037%=      5-min Rain = 0
KWE1 192237Z 36017KT 07/M06 A3028 RMK A01 T00721064  RH  037%=      5-min Rain = 0
KWE1 192238Z 35016KT 07/M06 A3028 RMK A01 T00721062  RH  038%=      5-min Rain = 0
KWE1 192239Z 35015KT 07/M06 A3028 RMK A01 T00721063  RH  038%=      5-min Rain = 0
KWE1 192240Z 36015KT 07/M06 A3028 RMK A01 T00721062  RH  038%=      5-min Rain = 0
KWE1 192241Z 00013KT 07/M06 A3028 RMK A01 T00721062  RH  038%=      5-min Rain = 0
KWE1 192242Z 36015KT 07/M06 A3028 RMK A01 T00721063  RH  038%=      5-min Rain = 0
KWE1 192243Z 35015KT 07/M06 A3028 RMK A01 T00721063  RH  038%=      5-min Rain = 0
KWE1 192244Z 00012KT 07/M06 A3028 RMK A01 T00721062  RH  038%=      5-min Rain = 0
KWE1 192245Z 00012KT 07/M06 A3028 RMK A01 T00721061  RH  038%=      5-min Rain = 0
KWE1 192246Z 00014KT 07/M06 A3028 RMK A01 T00721062  RH  038%=      5-min Rain = 0
KWE1 192247Z 36016KT 07/M06 A3028 RMK A01 T00721063  RH  038%=      5-min Rain = 0
KWE1 192248Z 00016KT 07/M07 A3028 RMK A01 T00711066  RH  037%=      5-min Rain = 0
KWE1 192249Z 00013KT 07/M07 A3028 RMK A01 T00711065  RH  037%=      5-min Rain = 0
KWE1 192250Z 36012G17KT 07/M06 A3028 RMK A01 T00711064  RH  038%=      5-min Rain = 0
KWE1 192251Z 35014KT 07/M06 A3028 RMK A01 T00711062  RH  038%=      5-min Rain = 0
KWE1 192252Z 36014KT 07/M06 A3028 RMK A01 T00711061  RH  039%=      5-min Rain = 0
KWE1 192253Z 00016KT 07/M06 A3028 RMK A01 T00721062  RH  038%=      5-min Rain = 0
KWE1 192254Z 35014KT 07/M06 A3028 RMK A01 T00711062  RH  038%=      5-min Rain = 0
KWE1 192255Z 36015KT 07/M06 A3028 RMK A01 T00711061  RH  038%=      5-min Rain = 0
KWE1 192256Z 35017KT 07/M06 A3028 RMK A01 T00711062  RH  038%=      5-min Rain = 0
KWE1 192257Z 35015KT 07/M06 A3028 RMK A01 T00711062  RH  038%=      5-min Rain = 0
KWE1 192258Z 35014KT 07/M06 A3028 RMK A01 T00711062  RH  038%=      5-min Rain = 0
KWE1 192259Z 36013KT 07/M06 A3028 RMK A01 T00711060  RH  039%=      5-min Rain = 0
KWE1 192300Z 35013KT 07/M06 A3028 RMK A01 T00711057  RH  040%=      5-min Rain = 0
KWE1 192301Z 36015KT 07/M06 A3028 RMK A01 T00701058  RH  040%=      5-min Rain = 0
KWE1 192302Z 36016KT 07/M06 A3028 RMK A01 T00701061  RH  039%=      5-min Rain = 0
KWE1 192303Z 00018KT 07/M06 A3029 RMK A01 T00691063  RH  038%=      5-min Rain = 0
KWE1 192304Z 00015KT 07/M07 A3028 RMK A01 T00691065  RH  038%=      5-min Rain = 0
KWE1 192305Z 36014KT 07/M06 A3028 RMK A01 T00691063  RH  038%=      5-min Rain = 0
KWE1 192306Z 35016KT 07/M06 A3028 RMK A01 T00681062  RH  039%=      5-min Rain = 0
KWE1 192307Z 00012KT 07/M06 A3029 RMK A01 T00691059  RH  040%=      5-min Rain = 0
KWE1 192308Z 00014KT 07/M06 A3029 RMK A01 T00691060  RH  039%=      5-min Rain = 0
KWE1 192309Z 00012KT 07/M06 A3029 RMK A01 T00681064  RH  038%=      5-min Rain = 0
KWE1 192310Z 01013KT 07/M06 A3029 RMK A01 T00681062  RH  039%=      5-min Rain = 0
KWE1 192311Z 00012KT 07/M06 A3029 RMK A01 T00681061  RH  039%=      5-min Rain = 0
KWE1 192312Z 01012KT 07/M06 A3029 RMK A01 T00681061  RH  039%=      5-min Rain = 0
KWE1 192313Z 01012KT 07/M06 A3029 RMK A01 T00681061  RH  040%=      5-min Rain = 0
KWE1 192314Z 02013KT 07/M06 A3029 RMK A01 T00671062  RH  039%=      5-min Rain = 0
KWE1 192315Z 01012KT 07/M06 A3029 RMK A01 T00671061  RH  040%=      5-min Rain = 0
KWE1 192316Z 01011KT 07/M06 A3029 RMK A01 T00661059  RH  040%=      5-min Rain = 0
KWE1 192317Z 02013KT 07/M06 A3029 RMK A01 T00661060  RH  040%=      5-min Rain = 0
KWE1 192318Z 01012KT 07/M06 A3029 RMK A01 T00661060  RH  040%=      5-min Rain = 0
KWE1 192319Z 36014KT 07/M06 A3029 RMK A01 T00661060  RH  040%=      5-min Rain = 0
KWE1 192320Z 01014KT 07/M06 A3029 RMK A01 T00651064  RH  039%=      5-min Rain = 0
KWE1 192321Z 00014KT 07/M07 A3029 RMK A01 T00661065  RH  039%=      5-min Rain = 0
KWE1 192322Z 01014KT 07/M07 A3029 RMK A01 T00651065  RH  039%=      5-min Rain = 0
KWE1 192323Z 00013KT 06/M07 A3029 RMK A01 T00641066  RH  039%=      5-min Rain = 0
KWE1 192324Z 01011KT 06/M07 A3029 RMK A01 T00641066  RH  039%=      5-min Rain = 0
KWE1 192325Z 01011KT 06/M07 A3029 RMK A01 T00631065  RH  039%=      5-min Rain = 0
KWE1 192326Z 01012KT 06/M06 A3029 RMK A01 T00631063  RH  040%=      5-min Rain = 0
KWE1 192327Z 00013KT 06/M06 A3029 RMK A01 T00631063  RH  040%=      5-min Rain = 0
KWE1 192328Z 00012KT 06/M07 A3029 RMK A01 T00621066  RH  039%=      5-min Rain = 0
KWE1 192329Z 00013KT 06/M06 A3029 RMK A01 T00621064  RH  040%=      5-min Rain = 0
KWE1 192330Z 01012KT 06/M07 A3029 RMK A01 T00621066  RH  040%=      5-min Rain = 0
KWE1 192331Z 01010KT 06/M07 A3029 RMK A01 T00621065  RH  040%=      5-min Rain = 0
KWE1 192332Z 01013KT 06/M06 A3029 RMK A01 T00621064  RH  040%=      5-min Rain = 0
KWE1 192333Z 01012KT 06/M07 A3029 RMK A01 T00611066  RH  040%=      5-min Rain = 0
KWE1 192334Z 01010KT 06/M07 A3029 RMK A01 T00611067  RH  039%=      5-min Rain = 0
KWE1 192335Z 02010KT 06/M06 A3029 RMK A01 T00601063  RH  041%=      5-min Rain = 0
KWE1 192336Z 02010KT 06/M06 A3029 RMK A01 T00591061  RH  042%=      5-min Rain = 0
KWE1 192337Z 01010KT 06/M06 A3029 RMK A01 T00581061  RH  042%=      5-min Rain = 0
KWE1 192338Z 01008KT 06/M06 A3029 RMK A01 T00581059  RH  043%=      5-min Rain = 0
KWE1 192339Z 01009KT 06/M06 A3029 RMK A01 T00571057  RH  044%=      5-min Rain = 0
KWE1 192340Z 01010KT 06/M06 A3029 RMK A01 T00571055  RH  044%=      5-min Rain = 0
KWE1 192341Z 01010KT 06/M06 A3029 RMK A01 T00571056  RH  044%=      5-min Rain = 0
KWE1 192342Z 01010KT 06/M06 A3029 RMK A01 T00571056  RH  044%=      5-min Rain = 0
KWE1 192343Z 00011KT 06/M06 A3029 RMK A01 T00571056  RH  044%=      5-min Rain = 0
KWE1 192344Z 01013KT 06/M06 A3029 RMK A01 T00571059  RH  043%=      5-min Rain = 0
KWE1 192345Z 01012KT 06/M06 A3029 RMK A01 T00571063  RH  042%=      5-min Rain = 0
KWE1 192346Z 01012KT 06/M06 A3029 RMK A01 T00571062  RH  042%=      5-min Rain = 0
KWE1 192347Z 01013KT 06/M06 A3029 RMK A01 T00571062  RH  042%=      5-min Rain = 0
KWE1 192348Z 01011KT 06/M06 A3029 RMK A01 T00571062  RH  042%=      5-min Rain = 0
KWE1 192349Z 02012KT 06/M06 A3029 RMK A01 T00561061  RH  043%=      5-min Rain = 0
KWE1 192350Z 02012KT 06/M06 A3029 RMK A01 T00551062  RH  043%=      5-min Rain = 0
KWE1 192351Z 02012KT 05/M06 A3029 RMK A01 T00541063  RH  043%=      5-min Rain = 0
KWE1 192352Z 01009KT 05/M06 A3029 RMK A01 T00531061  RH  043%=      5-min Rain = 0
KWE1 192353Z 01011KT 05/M06 A3029 RMK A01 T00521059  RH  045%=      5-min Rain = 0
KWE1 192354Z 01011KT 05/M06 A3029 RMK A01 T00521059  RH  045%=      5-min Rain = 0
KWE1 192355Z 01012KT 05/M06 A3029 RMK A01 T00521060  RH  044%=      5-min Rain = 0
KWE1 192356Z 01011KT 05/M06 A3029 RMK A01 T00521060  RH  044%=      5-min Rain = 0
KWE1 192357Z 01011KT 05/M06 A3029 RMK A01 T00521060  RH  044%=      5-min Rain = 0
KWE1 192358Z 01011KT 05/M06 A3029 RMK A01 T00511060  RH  044%=      5-min Rain = 0
KWE1 192359Z 01010KT 05/M06 A3029 RMK A01 T00511060  RH  045%=      5-min Rain = 0
KWE1 200000Z 01010KT 05/M06 A3029 RMK A01 T00511060  RH  045%=      5-min Rain = 0
KWE1 200001Z 01009KT 05/M06 A3029 RMK A01 T00501060  RH  045%=      5-min Rain = 0
KWE1 200002Z 01011KT 05/M06 A3029 RMK A01 T00501059  RH  045%=      5-min Rain = 0
KWE1 200003Z 01010KT 05/M06 A3029 RMK A01 T00501060  RH  045%=      5-min Rain = 0
KWE1 200004Z 01009KT 05/M06 A3029 RMK A01 T00501059  RH  045%=      5-min Rain = 0
KWE1 200005Z 01008KT 05/M06 A3029 RMK A01 T00491058  RH  046%=      5-min Rain = 0
KWE1 200006Z 01008KT 05/M06 A3029 RMK A01 T00481056  RH  047%=      5-min Rain = 0
KWE1 200007Z 01009KT 05/M06 A3029 RMK A01 T00471055  RH  048%=      5-min Rain = 0
KWE1 200008Z 01009KT 05/M06 A3029 RMK A01 T00471055  RH  048%=      5-min Rain = 0
KWE1 200009Z 01010KT 05/M06 A3029 RMK A01 T00461058  RH  047%=      5-min Rain = 0
KWE1 200010Z 00009KT 05/M06 A3029 RMK A01 T00471059  RH  046%=      5-min Rain = 0
KWE1 200011Z 01009KT 05/M06 A3029 RMK A01 T00471059  RH  046%=      5-min Rain = 0
KWE1 200012Z 01009KT 05/M06 A3029 RMK A01 T00471060  RH  046%=      5-min Rain = 0
KWE1 200013Z 01009KT 05/M06 A3029 RMK A01 T00461060  RH  046%=      5-min Rain = 0
KWE1 200014Z 01009KT 05/M06 A3029 RMK A01 T00461060  RH  046%=      5-min Rain = 0
KWE1 200015Z 01009KT 05/M06 A3029 RMK A01 T00461060  RH  046%=      5-min Rain = 0
KWE1 200016Z 01008KT 05/M06 A303 RMK A01 T00461060  RH  046%=      5-min Rain = 0
KWE1 200017Z 01009KT 05/M06 A303 RMK A01 T00451059  RH  047%=      5-min Rain = 0
KWE1 200018Z 01009KT 04/M06 A303 RMK A01 T00441060  RH  047%=      5-min Rain = 0
KWE1 200019Z 01008KT 04/M06 A303 RMK A01 T00441060  RH  047%=      5-min Rain = 0
KWE1 200020Z 01008KT 04/M06 A303 RMK A01 T00441059  RH  047%=      5-min Rain = 0
KWE1 200021Z 01006KT 04/M06 A303 RMK A01 T00431058  RH  048%=      5-min Rain = 0
KWE1 200022Z 01006KT 04/M06 A303 RMK A01 T00431056  RH  049%=      5-min Rain = 0
KWE1 200023Z 01007KT 04/M06 A303 RMK A01 T00421055  RH  049%=      5-min Rain = 0
KWE1 200024Z 01007KT 04/M06 A303 RMK A01 T00411056  RH  049%=      5-min Rain = 0
KWE1 200025Z 02008KT 04/M06 A303 RMK A01 T00411057  RH  049%=      5-min Rain = 0
KWE1 200026Z 02008KT 04/M06 A303 RMK A01 T00411057  RH  049%=      5-min Rain = 0
KWE1 200027Z 02007KT 04/M06 A303 RMK A01 T00401057  RH  049%=      5-min Rain = 0
KWE1 200028Z 02008KT 04/M06 A303 RMK A01 T00401057  RH  049%=      5-min Rain = 0
KWE1 200029Z 02008KT 04/M06 A303 RMK A01 T00391057  RH  049%=      5-min Rain = 0
KWE1 200030Z 02007KT 04/M06 A303 RMK A01 T00391058  RH  049%=      5-min Rain = 0
KWE1 200031Z 02007KT 04/M06 A303 RMK A01 T00391058  RH  049%=      5-min Rain = 0
KWE1 200032Z 02008KT 04/M06 A303 RMK A01 T00381059  RH  049%=      5-min Rain = 0
KWE1 200033Z 02007KT 04/M06 A303 RMK A01 T00371058  RH  050%=      5-min Rain = 0
KWE1 200034Z 02009KT 04/M06 A303 RMK A01 T00371060  RH  049%=      5-min Rain = 0
KWE1 200035Z 02007KT 04/M06 A303 RMK A01 T00371061  RH  049%=      5-min Rain = 0
KWE1 200036Z 02007KT 04/M06 A303 RMK A01 T00381061  RH  048%=      5-min Rain = 0
KWE1 200037Z 02008KT 04/M06 A303 RMK A01 T00381061  RH  049%=      5-min Rain = 0
KWE1 200038Z 02008KT 04/M06 A303 RMK A01 T00371061  RH  049%=      5-min Rain = 0
KWE1 200039Z 02009KT 04/M06 A303 RMK A01 T00371061  RH  049%=      5-min Rain = 0
KWE1 200040Z 02009KT 04/M06 A303 RMK A01 T00371062  RH  048%=      5-min Rain = 0
KWE1 200041Z 02009KT 04/M06 A303 RMK A01 T00371062  RH  048%=      5-min Rain = 0
KWE1 200042Z 02008KT 04/M06 A303 RMK A01 T00371061  RH  049%=      5-min Rain = 0
KWE1 200043Z 02009KT 04/M06 A303 RMK A01 T00361059  RH  050%=      5-min Rain = 0
KWE1 200044Z 02009KT 04/M06 A303 RMK A01 T00351060  RH  050%=      5-min Rain = 0
KWE1 200045Z 02010KT 03/M06 A303 RMK A01 T00341059  RH  050%=      5-min Rain = 0
KWE1 200046Z 02009KT 03/M06 A303 RMK A01 T00341059  RH  051%=      5-min Rain = 0
KWE1 200047Z 02010KT 03/M06 A303 RMK A01 T00341058  RH  051%=      5-min Rain = 0
KWE1 200048Z 02009KT 03/M06 A303 RMK A01 T00331058  RH  051%=      5-min Rain = 0
KWE1 200049Z 02010KT 03/M06 A303 RMK A01 T00331058  RH  051%=      5-min Rain = 0
KWE1 200050Z 02010KT 03/M06 A303 RMK A01 T00331060  RH  050%=      5-min Rain = 0
KWE1 200051Z 02010KT 03/M06 A303 RMK A01 T00341061  RH  050%=      5-min Rain = 0
KWE1 200052Z 02009KT 04/M06 A303 RMK A01 T00351062  RH  049%=      5-min Rain = 0
KWE1 200053Z 02009KT 04/M06 A303 RMK A01 T00351062  RH  049%=      5-min Rain = 0
KWE1 200054Z 02010KT 04/M06 A303 RMK A01 T00351061  RH  050%=      5-min Rain = 0
KWE1 200055Z 02009KT 03/M06 A303 RMK A01 T00341061  RH  050%=      5-min Rain = 0
KWE1 200056Z 02009KT 03/M06 A303 RMK A01 T00341060  RH  050%=      5-min Rain = 0
KWE1 200057Z 02009KT 03/M06 A3031 RMK A01 T00341060  RH  050%=      5-min Rain = 0
KWE1 200058Z 02009KT 03/M06 A303 RMK A01 T00341059  RH  051%=      5-min Rain = 0
KWE1 200059Z 02008KT 03/M06 A303 RMK A01 T00331059  RH  051%=      5-min Rain = 0
KWE1 200100Z 02008KT 03/M06 A303 RMK A01 T00331059  RH  051%=      5-min Rain = 0
KWE1 200101Z 02008KT 03/M06 A303 RMK A01 T00331060  RH  051%=      5-min Rain = 0
KWE1 200102Z 02008KT 03/M06 A303 RMK A01 T00321060  RH  051%=      5-min Rain = 0
KWE1 200103Z 02007KT 03/M06 A303 RMK A01 T00331060  RH  051%=      5-min Rain = 0
KWE1 200104Z 02007KT 03/M06 A303 RMK A01 T00321061  RH  051%=      5-min Rain = 0
KWE1 200105Z 02006KT 03/M06 A303 RMK A01 T00321061  RH  051%=      5-min Rain = 0
KWE1 200106Z 02006KT 03/M06 A3031 RMK A01 T00311061  RH  051%=      5-min Rain = 0
KWE1 200107Z 02007KT 03/M06 A3031 RMK A01 T00301061  RH  051%=      5-min Rain = 0
KWE1 200108Z 02005KT 03/M06 A3031 RMK A01 T00301062  RH  051%=      5-min Rain = 0
KWE1 200109Z 02006KT 03/M06 A3031 RMK A01 T00301062  RH  051%=      5-min Rain = 0
KWE1 200110Z 02006KT 03/M06 A3031 RMK A01 T00301062  RH  051%=      5-min Rain = 0
KWE1 200111Z 03006KT 03/M06 A3031 RMK A01 T00291062  RH  051%=      5-min Rain = 0
KWE1 200112Z 03007KT 03/M06 A3031 RMK A01 T00291063  RH  051%=      5-min Rain = 0
KWE1 200113Z 03006KT 03/M06 A3031 RMK A01 T00291064  RH  050%=      5-min Rain = 0
KWE1 200114Z 03006KT 03/M07 A3031 RMK A01 T00301065  RH  050%=      5-min Rain = 0
KWE1 200115Z 03005KT 03/M07 A3031 RMK A01 T00301066  RH  049%=      5-min Rain = 0
KWE1 200116Z 03006KT 03/M07 A3031 RMK A01 T00311066  RH  049%=      5-min Rain = 0
KWE1 200117Z 04006KT 03/M07 A3031 RMK A01 T00311067  RH  049%=      5-min Rain = 0
KWE1 200118Z 03005KT 03/M07 A3031 RMK A01 T00311069  RH  048%=      5-min Rain = 0
KWE1 200119Z 03005KT 03/M07 A3031 RMK A01 T00311069  RH  048%=      5-min Rain = 0
KWE1 200120Z 03005KT 03/M07 A3031 RMK A01 T00311069  RH  048%=      5-min Rain = 0
KWE1 200121Z 03006KT 03/M07 A3031 RMK A01 T00301069  RH  048%=      5-min Rain = 0
KWE1 200122Z 03006KT 03/M07 A3031 RMK A01 T00301068  RH  048%=      5-min Rain = 0
KWE1 200123Z 03006KT 03/M07 A3031 RMK A01 T00291069  RH  048%=      5-min Rain = 0
KWE1 200124Z 03007KT 03/M07 A3031 RMK A01 T00291069  RH  048%=      5-min Rain = 0
KWE1 200125Z 03006KT 03/M07 A3031 RMK A01 T00291069  RH  049%=      5-min Rain = 0
KWE1 200126Z 03007KT 03/M07 A3031 RMK A01 T00291068  RH  049%=      5-min Rain = 0
KWE1 200127Z 03007KT 03/M07 A3031 RMK A01 T00281068  RH  049%=      5-min Rain = 0
KWE1 200128Z 03007KT 03/M07 A3031 RMK A01 T00281068  RH  049%=      5-min Rain = 0
KWE1 200129Z 03007KT 03/M07 A3031 RMK A01 T00281068  RH  049%=      5-min Rain = 0
KWE1 200130Z 03009KT 03/M07 A3031 RMK A01 T00281067  RH  050%=      5-min Rain = 0
KWE1 200131Z 03009KT 03/M07 A3031 RMK A01 T00281068  RH  049%=      5-min Rain = 0
KWE1 200132Z 03008KT 03/M07 A3031 RMK A01 T00281068  RH  049%=      5-min Rain = 0
KWE1 200133Z 03008KT 03/M07 A3031 RMK A01 T00281068  RH  049%=      5-min Rain = 0
KWE1 200134Z 03008KT 03/M07 A3031 RMK A01 T00281068  RH  049%=      5-min Rain = 0
KWE1 200135Z 03008KT 03/M07 A3031 RMK A01 T00281068  RH  049%=      5-min Rain = 0
KWE1 200136Z 03007KT 03/M07 A3031 RMK A01 T00281069  RH  049%=      5-min Rain = 0
KWE1 200137Z 03007KT 03/M07 A3031 RMK A01 T00281069  RH  049%=      5-min Rain = 0
KWE1 200138Z 03007KT 03/M07 A3031 RMK A01 T00271069  RH  049%=      5-min Rain = 0
KWE1 200139Z 03007KT 03/M07 A3031 RMK A01 T00271069  RH  049%=      5-min Rain = 0
KWE1 200140Z 03007KT 03/M07 A3032 RMK A01 T00271069  RH  049%=      5-min Rain = 0
KWE1 200141Z 03007KT 03/M07 A3032 RMK A01 T00261068  RH  050%=      5-min Rain = 0
KWE1 200142Z 03007KT 03/M07 A3032 RMK A01 T00251069  RH  050%=      5-min Rain = 0
KWE1 200143Z 03006KT 03/M07 A3032 RMK A01 T00251068  RH  050%=      5-min Rain = 0
KWE1 200144Z 03007KT 03/M07 A3032 RMK A01 T00251068  RH  050%=      5-min Rain = 0
KWE1 200145Z 03006KT 03/M07 A3032 RMK A01 T00251069  RH  050%=      5-min Rain = 0
KWE1 200146Z 03006KT 03/M07 A3032 RMK A01 T00251069  RH  050%=      5-min Rain = 0
KWE1 200147Z 03006KT 03/M07 A3032 RMK A01 T00251069  RH  050%=      5-min Rain = 0
KWE1 200148Z 03006KT 03/M07 A3032 RMK A01 T00251069  RH  050%=      5-min Rain = 0
KWE1 200149Z 03007KT 02/M07 A3032 RMK A01 T00241069  RH  050%=      5-min Rain = 0
KWE1 200150Z 03006KT 02/M07 A3032 RMK A01 T00241069  RH  050%=      5-min Rain = 0
KWE1 200151Z 03006KT 02/M07 A3033 RMK A01 T00241068  RH  051%=      5-min Rain = 0
KWE1 200152Z 03006KT 02/M07 A3033 RMK A01 T00231068  RH  051%=      5-min Rain = 0
KWE1 200153Z 03006KT 02/M07 A3033 RMK A01 T00231068  RH  051%=      5-min Rain = 0
KWE1 200154Z 03007KT 02/M07 A3033 RMK A01 T00231068  RH  051%=      5-min Rain = 0
KWE1 200155Z 02007KT 02/M07 A3033 RMK A01 T00231069  RH  051%=      5-min Rain = 0
KWE1 200156Z 03007KT 02/M07 A3033 RMK A01 T00231069  RH  051%=      5-min Rain = 0
KWE1 200157Z 02008KT 02/M07 A3033 RMK A01 T00231068  RH  051%=      5-min Rain = 0
KWE1 200158Z 03009KT 02/M07 A3033 RMK A01 T00231069  RH  051%=      5-min Rain = 0
KWE1 200159Z 03008KT 02/M07 A3033 RMK A01 T00241069  RH  050%=      5-min Rain = 0
KWE1 200200Z 03009KT 02/M07 A3033 RMK A01 T00241069  RH  050%=      5-min Rain = 0
KWE1 200201Z 02009KT 03/M07 A3033 RMK A01 T00251070  RH  050%=      5-min Rain = 0
KWE1 200202Z 03009KT 03/M07 A3033 RMK A01 T00251070  RH  050%=      5-min Rain = 0
KWE1 200203Z 02008KT 02/M07 A3033 RMK A01 T00241070  RH  050%=      5-min Rain = 0
KWE1 200204Z 03008KT 02/M07 A3033 RMK A01 T00241069  RH  050%=      5-min Rain = 0
KWE1 200205Z 02007KT 02/M07 A3033 RMK A01 T00241069  RH  050%=      5-min Rain = 0
KWE1 200206Z 02008KT 02/M07 A3033 RMK A01 T00231069  RH  051%=      5-min Rain = 0
KWE1 200207Z 02007KT 02/M07 A3033 RMK A01 T00221069  RH  051%=      5-min Rain = 0
KWE1 200208Z 03008KT 02/M07 A3033 RMK A01 T00221069  RH  051%=      5-min Rain = 0
KWE1 200209Z 03007KT 02/M07 A3033 RMK A01 T00221069  RH  051%=      5-min Rain = 0
KWE1 200210Z 02007KT 02/M07 A3033 RMK A01 T00221068  RH  052%=      5-min Rain = 0
KWE1 200211Z 02007KT 02/M07 A3033 RMK A01 T00211068  RH  052%=      5-min Rain = 0
KWE1 200212Z 02007KT 02/M07 A3033 RMK A01 T00201067  RH  052%=      5-min Rain = 0
KWE1 200213Z 03007KT 02/M07 A3032 RMK A01 T00191068  RH  053%=      5-min Rain = 0
KWE1 200214Z 02007KT 02/M07 A3032 RMK A01 T00191067  RH  053%=      5-min Rain = 0
KWE1 200215Z 03006KT 02/M07 A3032 RMK A01 T00181067  RH  053%=      5-min Rain = 0
KWE1 200216Z 03006KT 02/M07 A3032 RMK A01 T00181067  RH  053%=      5-min Rain = 0
KWE1 200217Z 03006KT 02/M07 A3032 RMK A01 T00181067  RH  053%=      5-min Rain = 0
KWE1 200218Z 03006KT 02/M07 A3032 RMK A01 T00181067  RH  053%=      5-min Rain = 0
KWE1 200219Z 03006KT 02/M07 A3032 RMK A01 T00181066  RH  054%=      5-min Rain = 0
KWE1 200220Z 03006KT 02/M07 A3032 RMK A01 T00171067  RH  054%=      5-min Rain = 0
KWE1 200221Z 03006KT 02/M07 A3032 RMK A01 T00171067  RH  054%=      5-min Rain = 0
KWE1 200222Z 03006KT 02/M07 A3032 RMK A01 T00171067  RH  053%=      5-min Rain = 0
KWE1 200223Z 03006KT 02/M07 A3032 RMK A01 T00171067  RH  053%=      5-min Rain = 0
KWE1 200224Z 03005KT 02/M07 A3032 RMK A01 T00171067  RH  054%=      5-min Rain = 0
KWE1 200225Z 03004KT 02/M07 A3032 RMK A01 T00171067  RH  054%=      5-min Rain = 0
KWE1 200226Z 03004KT 02/M07 A3032 RMK A01 T00171067  RH  054%=      5-min Rain = 0
KWE1 200227Z 03004KT 02/M07 A3032 RMK A01 T00171067  RH  054%=      5-min Rain = 0
KWE1 200228Z 03004KT 02/M07 A3032 RMK A01 T00171067  RH  054%=      5-min Rain = 0
KWE1 200229Z 03003KT 02/M07 A3032 RMK A01 T00161067  RH  054%=      5-min Rain = 0
KWE1 200230Z 03004KT 02/M07 A3032 RMK A01 T00161068  RH  054%=      5-min Rain = 0
KWE1 200231Z 03003KT 02/M07 A3032 RMK A01 T00161069  RH  053%=      5-min Rain = 0
KWE1 200232Z 02003KT 02/M07 A3032 RMK A01 T00161069  RH  053%=      5-min Rain = 0
KWE1 200233Z 03004KT 02/M07 A3032 RMK A01 T00161068  RH  054%=      5-min Rain = 0
KWE1 200234Z 03004KT 02/M07 A3032 RMK A01 T00161068  RH  054%=      5-min Rain = 0
KWE1 200235Z 03004KT 02/M07 A3032 RMK A01 T00151068  RH  054%=      5-min Rain = 0
KWE1 200236Z 03004KT 02/M07 A3032 RMK A01 T00151069  RH  054%=      5-min Rain = 0
KWE1 200237Z 03004KT 02/M07 A3032 RMK A01 T00151068  RH  054%=      5-min Rain = 0
KWE1 200238Z 03004KT 01/M07 A3032 RMK A01 T00131069  RH  054%=      5-min Rain = 0
KWE1 200239Z 03005KT 01/M07 A3032 RMK A01 T00131069  RH  054%=      5-min Rain = 0
KWE1 200240Z 03004KT 01/M07 A3032 RMK A01 T00131069  RH  054%=      5-min Rain = 0
KWE1 200241Z 03004KT 01/M07 A3032 RMK A01 T00131068  RH  055%=      5-min Rain = 0
KWE1 200242Z 03005KT 01/M07 A3032 RMK A01 T00121068  RH  055%=      5-min Rain = 0
KWE1 200243Z 03005KT 01/M07 A3032 RMK A01 T00121068  RH  055%=      5-min Rain = 0
KWE1 200244Z 03005KT 01/M07 A3031 RMK A01 T00121068  RH  055%=      5-min Rain = 0
KWE1 200245Z 04006KT 01/M07 A3031 RMK A01 T00121068  RH  055%=      5-min Rain = 0
KWE1 200246Z 03007KT 01/M07 A3031 RMK A01 T00121069  RH  055%=      5-min Rain = 0
KWE1 200247Z 04007KT 01/M07 A3031 RMK A01 T00131070  RH  054%=      5-min Rain = 0
KWE1 200248Z 04007KT 01/M07 A3031 RMK A01 T00141070  RH  054%=      5-min Rain = 0
KWE1 200249Z 04007KT 01/M07 A3031 RMK A01 T00141070  RH  053%=      5-min Rain = 0
KWE1 200250Z 04007KT 02/M07 A3031 RMK A01 T00151070  RH  053%=      5-min Rain = 0
KWE1 200251Z 04006KT 02/M07 A3031 RMK A01 T00151069  RH  053%=      5-min Rain = 0
KWE1 200252Z 04006KT 02/M07 A3031 RMK A01 T00161068  RH  054%=      5-min Rain = 0
KWE1 200253Z 05006KT 02/M07 A3031 RMK A01 T00161069  RH  053%=      5-min Rain = 0
KWE1 200254Z 05005KT 02/M07 A3031 RMK A01 T00161069  RH  053%=      5-min Rain = 0
KWE1 200255Z 05005KT 02/M07 A3031 RMK A01 T00171068  RH  053%=      5-min Rain = 0
KWE1 200256Z 06005KT 02/M07 A3031 RMK A01 T00171067  RH  054%=      5-min Rain = 0
KWE1 200257Z 07006KT 02/M07 A3031 RMK A01 T00171067  RH  054%=      5-min Rain = 0
KWE1 200258Z 07005KT 02/M07 A3031 RMK A01 T00161068  RH  054%=      5-min Rain = 0
KWE1 200259Z 07003KT 02/M07 A3032 RMK A01 T00161068  RH  054%=      5-min Rain = 0
KWE1 200300Z 07004KT 02/M07 A3032 RMK A01 T00161069  RH  053%=      5-min Rain = 0
KWE1 200301Z 07003KT 02/M07 A3032 RMK A01 T00161070  RH  053%=      5-min Rain = 0
KWE1 200302Z 06004KT 02/M07 A3032 RMK A01 T00161071  RH  053%=      5-min Rain = 0
KWE1 200303Z 07004KT 02/M07 A3032 RMK A01 T00161072  RH  052%=      5-min Rain = 0
KWE1 200304Z 07003KT 02/M07 A3032 RMK A01 T00161073  RH  052%=      5-min Rain = 0
KWE1 200305Z 06004KT 02/M07 A3032 RMK A01 T00161073  RH  052%=      5-min Rain = 0
KWE1 200306Z 06005KT 02/M07 A3032 RMK A01 T00161071  RH  052%=      5-min Rain = 0
KWE1 200307Z 05005KT 02/M07 A3032 RMK A01 T00161071  RH  052%=      5-min Rain = 0
KWE1 200308Z 05005KT 02/M07 A3032 RMK A01 T00161073  RH  052%=      5-min Rain = 0
KWE1 200309Z 05005KT 02/M07 A3032 RMK A01 T00161074  RH  051%=      5-min Rain = 0
KWE1 200310Z 05006KT 02/M07 A3032 RMK A01 T00161074  RH  051%=      5-min Rain = 0
KWE1 200311Z 04006KT 02/M08 A3032 RMK A01 T00161075  RH  051%=      5-min Rain = 0
KWE1 200312Z 04006KT 02/M08 A3032 RMK A01 T00171075  RH  050%=      5-min Rain = 0
KWE1 200313Z 04006KT 02/M07 A3032 RMK A01 T00171074  RH  051%=      5-min Rain = 0
KWE1 200314Z 04006KT 02/M07 A3032 RMK A01 T00171074  RH  051%=      5-min Rain = 0
KWE1 200315Z 04007KT 02/M07 A3032 RMK A01 T00171073  RH  051%=      5-min Rain = 0
KWE1 200316Z 04006KT 02/M07 A3032 RMK A01 T00161072  RH  052%=      5-min Rain = 0
KWE1 200317Z 04006KT 02/M07 A3032 RMK A01 T00151071  RH  053%=      5-min Rain = 0
KWE1 200318Z 04006KT 01/M07 A3032 RMK A01 T00141071  RH  053%=      5-min Rain = 0
KWE1 200319Z 04005KT 01/M07 A3032 RMK A01 T00131071  RH  054%=      5-min Rain = 0
KWE1 200320Z 04005KT 01/M07 A3032 RMK A01 T00131071  RH  054%=      5-min Rain = 0
KWE1 200321Z 04005KT 01/M07 A3032 RMK A01 T00131070  RH  054%=      5-min Rain = 0
KWE1 200322Z 04005KT 01/M07 A3032 RMK A01 T00131070  RH  054%=      5-min Rain = 0
KWE1 200323Z 04005KT 01/M07 A3033 RMK A01 T00131071  RH  053%=      5-min Rain = 0
KWE1 200324Z 04005KT 01/M07 A3033 RMK A01 T00131072  RH  053%=      5-min Rain = 0
KWE1 200325Z 04004KT 01/M07 A3033 RMK A01 T00131072  RH  053%=      5-min Rain = 0
KWE1 200326Z 04003KT 01/M07 A3033 RMK A01 T00131072  RH  053%=      5-min Rain = 0
KWE1 200327Z 04003KT 01/M07 A3033 RMK A01 T00131072  RH  053%=      5-min Rain = 0
KWE1 200328Z 05004KT 01/M07 A3033 RMK A01 T00131072  RH  053%=      5-min Rain = 0
KWE1 200329Z 05004KT 01/M07 A3033 RMK A01 T00121073  RH  053%=      5-min Rain = 0
KWE1 200330Z 04004KT 01/M07 A3033 RMK A01 T00121073  RH  053%=      5-min Rain = 0
KWE1 200331Z 05004KT 01/M07 A3034 RMK A01 T00121074  RH  053%=      5-min Rain = 0
KWE1 200332Z 05005KT 01/M07 A3034 RMK A01 T00121074  RH  053%=      5-min Rain = 0
KWE1 200333Z 05005KT 01/M07 A3034 RMK A01 T00131074  RH  052%=      5-min Rain = 0
KWE1 200334Z 05005KT 01/M07 A3034 RMK A01 T00131073  RH  053%=      5-min Rain = 0
KWE1 200335Z 06004KT 01/M07 A3034 RMK A01 T00141072  RH  053%=      5-min Rain = 0
KWE1 200336Z 06005KT 01/M07 A3034 RMK A01 T00131072  RH  053%=      5-min Rain = 0
KWE1 200337Z 06004KT 01/M07 A3034 RMK A01 T00131072  RH  053%=      5-min Rain = 0
KWE1 200338Z 07003KT 01/M07 A3034 RMK A01 T00131072  RH  053%=      5-min Rain = 0
KWE1 200339Z 05003KT 01/M07 A3034 RMK A01 T00131072  RH  053%=      5-min Rain = 0
KWE1 200340Z 06002KT 01/M07 A3034 RMK A01 T00121072  RH  053%=      5-min Rain = 0
KWE1 200341Z 05003KT 01/M07 A3034 RMK A01 T00121072  RH  053%=      5-min Rain = 0
KWE1 200342Z 05004KT 01/M07 A3034 RMK A01 T00121073  RH  053%=      5-min Rain = 0
KWE1 200343Z 05004KT 01/M07 A3035 RMK A01 T00121074  RH  053%=      5-min Rain = 0
KWE1 200344Z 04005KT 01/M08 A3035 RMK A01 T00121075  RH  052%=      5-min Rain = 0
KWE1 200345Z 04004KT 01/M08 A3034 RMK A01 T00121075  RH  052%=      5-min Rain = 0
KWE1 200346Z 03005KT 01/M07 A3034 RMK A01 T00111074  RH  053%=      5-min Rain = 0
KWE1 200347Z 03005KT 01/M07 A3034 RMK A01 T00111074  RH  053%=      5-min Rain = 0
KWE1 200348Z 03005KT 01/M07 A3034 RMK A01 T00111074  RH  053%=      5-min Rain = 0
KWE1 200349Z 03005KT 01/M07 A3034 RMK A01 T00101073  RH  054%=      5-min Rain = 0
KWE1 200350Z 04005KT 01/M07 A3034 RMK A01 T00091073  RH  054%=      5-min Rain = 0
KWE1 200351Z 04006KT 01/M07 A3034 RMK A01 T00081072  RH  055%=      5-min Rain = 0
KWE1 200352Z 04006KT 01/M07 A3034 RMK A01 T00071073  RH  055%=      5-min Rain = 0
KWE1 200353Z 03006KT 01/M07 A3034 RMK A01 T00081073  RH  055%=      5-min Rain = 0
KWE1 200354Z 03006KT 01/M07 A3034 RMK A01 T00071072  RH  055%=      5-min Rain = 0
KWE1 200355Z 03006KT 01/M07 A3034 RMK A01 T00071072  RH  056%=      5-min Rain = 0
KWE1 200356Z 03006KT 01/M07 A3034 RMK A01 T00061073  RH  056%=      5-min Rain = 0
KWE1 200357Z 04006KT 01/M07 A3034 RMK A01 T00071072  RH  056%=      5-min Rain = 0
KWE1 200358Z 04006KT 01/M07 A3034 RMK A01 T00061072  RH  056%=      5-min Rain = 0
KWE1 200359Z 04005KT 01/M07 A3034 RMK A01 T00071073  RH  055%=      5-min Rain = 0
KWE1 200400Z 04005KT 01/M07 A3034 RMK A01 T00091074  RH  054%=      5-min Rain = 0
KWE1 200401Z 04005KT 01/M07 A3034 RMK A01 T00101074  RH  054%=      5-min Rain = 0
KWE1 200402Z 04003KT 01/M07 A3035 RMK A01 T00101074  RH  053%=      5-min Rain = 0
KWE1 200403Z 05002KT 01/M07 A3035 RMK A01 T00111073  RH  054%=      5-min Rain = 0
KWE1 200404Z 04002KT 01/M07 A3035 RMK A01 T00101073  RH  054%=      5-min Rain = 0
KWE1 200405Z 05003KT 01/M07 A3035 RMK A01 T00101073  RH  054%=      5-min Rain = 0
KWE1 200406Z 05002KT 01/M07 A3035 RMK A01 T00101073  RH  054%=      5-min Rain = 0
KWE1 200407Z 05003KT 01/M07 A3035 RMK A01 T00101073  RH  054%=      5-min Rain = 0
KWE1 200408Z 06003KT 01/M07 A3035 RMK A01 T00101073  RH  054%=      5-min Rain = 0
KWE1 200409Z 06003KT 01/M07 A3035 RMK A01 T00091072  RH  055%=      5-min Rain = 0
KWE1 200410Z 06003KT 01/M07 A3035 RMK A01 T00091071  RH  055%=      5-min Rain = 0
KWE1 200411Z 06002KT 01/M07 A3035 RMK A01 T00091071  RH  055%=      5-min Rain = 0
KWE1 200412Z 05002KT 01/M07 A3036 RMK A01 T00081070  RH  056%=      5-min Rain = 0
KWE1 200413Z 06003KT 01/M07 A3035 RMK A01 T00081070  RH  056%=      5-min Rain = 0
KWE1 200414Z 05002KT 01/M07 A3035 RMK A01 T00071070  RH  056%=      5-min Rain = 0
KWE1 200415Z 07002KT 01/M07 A3035 RMK A01 T00071070  RH  056%=      5-min Rain = 0
KWE1 200416Z 05003KT 01/M07 A3035 RMK A01 T00071070  RH  056%=      5-min Rain = 0
KWE1 200417Z 05002KT 01/M07 A3035 RMK A01 T00071071  RH  056%=      5-min Rain = 0
KWE1 200418Z 05003KT 01/M07 A3035 RMK A01 T00061072  RH  056%=      5-min Rain = 0
KWE1 200419Z 05003KT 01/M07 A3035 RMK A01 T00061073  RH  056%=      5-min Rain = 0
KWE1 200420Z 05004KT 01/M07 A3035 RMK A01 T00061072  RH  056%=      5-min Rain = 0
KWE1 200421Z 05004KT 01/M07 A3035 RMK A01 T00061073  RH  056%=      5-min Rain = 0
KWE1 200422Z 05005KT 01/M07 A3035 RMK A01 T00061072  RH  056%=      5-min Rain = 0
KWE1 200423Z 05005KT 01/M07 A3035 RMK A01 T00061072  RH  056%=      5-min Rain = 0
KWE1 200424Z 05004KT 01/M07 A3035 RMK A01 T00061072  RH  056%=      5-min Rain = 0
KWE1 200425Z 05004KT 01/M07 A3035 RMK A01 T00061072  RH  056%=      5-min Rain = 0
KWE1 200426Z 06005KT 01/M07 A3035 RMK A01 T00061071  RH  056%=      5-min Rain = 0
KWE1 200427Z 06005KT 01/M07 A3035 RMK A01 T00061069  RH  057%=      5-min Rain = 0
KWE1 200428Z 06005KT 01/M07 A3035 RMK A01 T00061068  RH  057%=      5-min Rain = 0
KWE1 200429Z 06005KT 01/M07 A3035 RMK A01 T00051068  RH  058%=      5-min Rain = 0
KWE1 200430Z 06006KT 01/M07 A3035 RMK A01 T00051068  RH  058%=      5-min Rain = 0
KWE1 200431Z 06006KT 01/M07 A3035 RMK A01 T00051069  RH  058%=      5-min Rain = 0
KWE1 200432Z 07006KT 01/M07 A3035 RMK A01 T00051068  RH  058%=      5-min Rain = 0
KWE1 200433Z 06007KT 01/M07 A3035 RMK A01 T00051068  RH  058%=      5-min Rain = 0
KWE1 200434Z 07006KT 01/M07 A3035 RMK A01 T00051068  RH  058%=      5-min Rain = 0
KWE1 200435Z 07007KT 00/M07 A3035 RMK A01 T00041069  RH  058%=      5-min Rain = 0
KWE1 200436Z 07007KT 00/M07 A3035 RMK A01 T00041069  RH  058%=      5-min Rain = 0
KWE1 200437Z 07007KT 01/M07 A3035 RMK A01 T00051070  RH  057%=      5-min Rain = 0
KWE1 200438Z 07007KT 01/M07 A3035 RMK A01 T00051072  RH  056%=      5-min Rain = 0
KWE1 200439Z 08007KT 01/M07 A3035 RMK A01 T00061072  RH  056%=      5-min Rain = 0
KWE1 200440Z 07007KT 01/M07 A3034 RMK A01 T00061072  RH  056%=      5-min Rain = 0
KWE1 200441Z 08007KT 01/M07 A3034 RMK A01 T00051071  RH  057%=      5-min Rain = 0
KWE1 200442Z 07007KT 00/M07 A3034 RMK A01 T00041071  RH  057%=      5-min Rain = 0
KWE1 200443Z 07007KT 00/M07 A3034 RMK A01 T00041071  RH  057%=      5-min Rain = 0
KWE1 200444Z 07008KT 00/M07 A3034 RMK A01 T00041072  RH  057%=      5-min Rain = 0
KWE1 200445Z 07007KT 01/M07 A3034 RMK A01 T00051072  RH  056%=      5-min Rain = 0
KWE1 200446Z 07007KT 00/M07 A3034 RMK A01 T00041073  RH  056%=      5-min Rain = 0
KWE1 200447Z 07008KT 01/M07 A3034 RMK A01 T00051073  RH  055%=      5-min Rain = 0
KWE1 200448Z 06006KT 01/M07 A3034 RMK A01 T00071073  RH  055%=      5-min Rain = 0
KWE1 200449Z 07007KT 01/M07 A3034 RMK A01 T00071072  RH  055%=      5-min Rain = 0
KWE1 200450Z 06007KT 01/M07 A3034 RMK A01 T00071072  RH  055%=      5-min Rain = 0
KWE1 200451Z 07006KT 01/M07 A3034 RMK A01 T00061072  RH  056%=      5-min Rain = 0
KWE1 200452Z 07005KT 01/M07 A3034 RMK A01 T00061071  RH  056%=      5-min Rain = 0
KWE1 200453Z 07006KT 01/M07 A3034 RMK A01 T00061072  RH  056%=      5-min Rain = 0
KWE1 200454Z 07007KT 01/M07 A3035 RMK A01 T00061073  RH  055%=      5-min Rain = 0
KWE1 200455Z 06008KT 01/M07 A3035 RMK A01 T00061074  RH  055%=      5-min Rain = 0
KWE1 200456Z 07006KT 01/M07 A3035 RMK A01 T00071073  RH  055%=      5-min Rain = 0
KWE1 200457Z 07006KT 01/M07 A3035 RMK A01 T00071072  RH  055%=      5-min Rain = 0
KWE1 200458Z 07008KT 01/M07 A3035 RMK A01 T00061073  RH  056%=      5-min Rain = 0
KWE1 200459Z 07008KT 01/M07 A3034 RMK A01 T00061073  RH  055%=      5-min Rain = 0
KWE1 200500Z 07007KT 01/M07 A3034 RMK A01 T00061074  RH  055%=      5-min Rain = 0
KWE1 200501Z 07007KT 01/M08 A3035 RMK A01 T00061075  RH  055%=      5-min Rain = 0
KWE1 200502Z 07006KT 01/M08 A3035 RMK A01 T00061075  RH  055%=      5-min Rain = 0
KWE1 200503Z 08004KT 01/M07 A3035 RMK A01 T00061074  RH  055%=      5-min Rain = 0
KWE1 200504Z 08004KT 01/M08 A3035 RMK A01 T00051075  RH  055%=      5-min Rain = 0
KWE1 200505Z 08004KT 01/M08 A3035 RMK A01 T00051075  RH  055%=      5-min Rain = 0
KWE1 200506Z 08004KT 00/M08 A3035 RMK A01 T00041076  RH  055%=      5-min Rain = 0
KWE1 200507Z 07005KT 00/M08 A3035 RMK A01 T00041077  RH  055%=      5-min Rain = 0
KWE1 200508Z 08004KT 00/M08 A3035 RMK A01 T00041077  RH  054%=      5-min Rain = 0
KWE1 200509Z 08005KT 00/M08 A3035 RMK A01 T00041076  RH  055%=      5-min Rain = 0
KWE1 200510Z 08004KT 00/M08 A3035 RMK A01 T00031076  RH  055%=      5-min Rain = 0
KWE1 200511Z 08003KT 00/M08 A3035 RMK A01 T00031076  RH  055%=      5-min Rain = 0
KWE1 200512Z 08003KT 00/M08 A3035 RMK A01 T00031076  RH  055%=      5-min Rain = 0
KWE1 200513Z 08003KT 00/M08 A3035 RMK A01 T00021076  RH  055%=      5-min Rain = 0
KWE1 200514Z 07003KT 00/M08 A3035 RMK A01 T00021076  RH  056%=      5-min Rain = 0
KWE1 200515Z 07003KT 00/M08 A3035 RMK A01 T00011075  RH  056%=      5-min Rain = 0
KWE1 200516Z 07003KT 00/M07 A3035 RMK A01 T00011074  RH  057%=      5-min Rain = 0
KWE1 200517Z 07004KT 00/07 A3035 RMK A01 T00000-73  RH  058%=      5-min Rain = 0
KWE1 200518Z 08004KT 00/07 A3035 RMK A01 T00-00-73  RH  058%=      5-min Rain = 0
KWE1 200519Z 07004KT 00/07 A3035 RMK A01 T00-00-73  RH  058%=      5-min Rain = 0
KWE1 200520Z 07004KT 00/07 A3034 RMK A01 T00-00-74  RH  058%=      5-min Rain = 0
KWE1 200521Z 08004KT M00/M07 A3034 RMK A01 T10011074  RH  058%=      5-min Rain = 0
KWE1 200522Z 09004KT M00/M07 A3035 RMK A01 T10011074  RH  058%=      5-min Rain = 0
KWE1 200523Z 09004KT M00/M08 A3035 RMK A01 T10021075  RH  058%=      5-min Rain = 0
KWE1 200524Z 10004KT M00/M08 A3035 RMK A01 T10021075  RH  057%=      5-min Rain = 0
KWE1 200525Z 10004KT M00/M08 A3035 RMK A01 T10011075  RH  057%=      5-min Rain = 0
KWE1 200526Z 10004KT 00/08 A3035 RMK A01 T00000-75  RH  057%=      5-min Rain = 0
KWE1 200527Z 10004KT 00/M07 A3035 RMK A01 T00011074  RH  057%=      5-min Rain = 0
KWE1 200528Z 11003KT 00/M07 A3035 RMK A01 T00021074  RH  057%=      5-min Rain = 0
KWE1 200529Z 12002KT 00/M07 A3035 RMK A01 T00021072  RH  058%=      5-min Rain = 0
KWE1 200530Z 13002KT 00/M07 A3035 RMK A01 T00011071  RH  058%=      5-min Rain = 0
KWE1 200531Z 13002KT 00/07 A3035 RMK A01 T00-00-70  RH  060%=      5-min Rain = 0
KWE1 200532Z 13002KT M00/M07 A3035 RMK A01 T10021069  RH  061%=      5-min Rain = 0
KWE1 200533Z 12002KT M00/M07 A3035 RMK A01 T10021067  RH  061%=      5-min Rain = 0
KWE1 200534Z 12003KT M00/M07 A3035 RMK A01 T10031066  RH  062%=      5-min Rain = 0
KWE1 200535Z 11003KT M00/M07 A3035 RMK A01 T10031066  RH  063%=      5-min Rain = 0
KWE1 200536Z 11003KT M00/M07 A3035 RMK A01 T10031066  RH  063%=      5-min Rain = 0
KWE1 200537Z 11003KT M00/M07 A3035 RMK A01 T10041065  RH  063%=      5-min Rain = 0
KWE1 200538Z 12003KT M00/M07 A3035 RMK A01 T10041065  RH  063%=      5-min Rain = 0
KWE1 200539Z 12004KT M00/M07 A3035 RMK A01 T10041066  RH  063%=      5-min Rain = 0
KWE1 200540Z 11004KT M00/M07 A3035 RMK A01 T10041066  RH  063%=      5-min Rain = 0
KWE1 200541Z 11005KT M00/M07 A3035 RMK A01 T10041066  RH  063%=      5-min Rain = 0
KWE1 200542Z 11005KT M00/M07 A3035 RMK A01 T10041066  RH  063%=      5-min Rain = 0
KWE1 200543Z 11005KT M00/M07 A3035 RMK A01 T10041066  RH  063%=      5-min Rain = 0
KWE1 200544Z 10005KT M00/M07 A3035 RMK A01 T10041066  RH  063%=      5-min Rain = 0
KWE1 200545Z 11005KT M00/M07 A3035 RMK A01 T10031065  RH  063%=      5-min Rain = 0
KWE1 200546Z 10005KT M00/M07 A3035 RMK A01 T10031065  RH  063%=      5-min Rain = 0
KWE1 200547Z 10005KT M00/M06 A3035 RMK A01 T10041064  RH  064%=      5-min Rain = 0
KWE1 200548Z 10005KT M01/M06 A3035 RMK A01 T10051064  RH  064%=      5-min Rain = 0
KWE1 200549Z 10005KT M01/M06 A3035 RMK A01 T10061064  RH  065%=      5-min Rain = 0
KWE1 200550Z 10005KT M01/M06 A3035 RMK A01 T10061063  RH  065%=      5-min Rain = 0
KWE1 200551Z 10005KT M01/M06 A3035 RMK A01 T10061063  RH  065%=      5-min Rain = 0
KWE1 200552Z 09005KT M01/M06 A3036 RMK A01 T10071063  RH  066%=      5-min Rain = 0
KWE1 200553Z 09005KT M01/M06 A3036 RMK A01 T10081063  RH  066%=      5-min Rain = 0
KWE1 200554Z 09005KT M01/M06 A3036 RMK A01 T10081062  RH  067%=      5-min Rain = 0
KWE1 200555Z 09004KT M01/M06 A3036 RMK A01 T10081062  RH  067%=      5-min Rain = 0
KWE1 200556Z 09005KT M01/M06 A3036 RMK A01 T10091062  RH  067%=      5-min Rain = 0
KWE1 200557Z 09004KT M01/M06 A3036 RMK A01 T10091062  RH  067%=      5-min Rain = 0
KWE1 200558Z 09004KT M01/M06 A3035 RMK A01 T10091062  RH  067%=      5-min Rain = 0
KWE1 200559Z 09004KT M01/M06 A3036 RMK A01 T10101063  RH  067%=      5-min Rain = 0

Page generated in 0.1651 seconds.